<?xml version="1.0" encoding="UTF-8" standalone="no" ?>
<gpx xmlns="http://www.topografix.com/GPX/1/1" xmlns:xsi="http://www.w3.org/2001/XMLSchema-instance" xsi:schemaLocation="http://www.topografix.com/GPX/1/1 http://www.topografix.com/GPX/1/1/gpx.xsd" version="1.1" creator="VisuGPX - https://www.visugpx.com">
  <metadata>
    <name>Déconfinement.</name>
    <desc><![CDATA[Reprise progressive de l'activité physique après confinement. Parcours au bord de l'Adour.

]]></desc>
  </metadata>
  <trk>
    <name><![CDATA[16 mai 2020 à 14:23:37]]></name>
    <cmt><![CDATA[16 mai 2020 à 14:23:37]]></cmt>
    <trkseg>
      <trkpt lat="43.23411" lon="0.0817">
        <ele>320</ele>
        <time>2020-05-16T12:23:38Z</time>
      </trkpt>
      <trkpt lat="43.23411" lon="0.0817">
        <ele>320</ele>
        <time>2020-05-16T12:23:39Z</time>
      </trkpt>
      <trkpt lat="43.23407" lon="0.08178">
        <ele>320</ele>
        <time>2020-05-16T12:23:46Z</time>
      </trkpt>
      <trkpt lat="43.23407" lon="0.0819">
        <ele>320</ele>
        <time>2020-05-16T12:23:56Z</time>
      </trkpt>
      <trkpt lat="43.23409" lon="0.08204">
        <ele>319</ele>
        <time>2020-05-16T12:24:16Z</time>
      </trkpt>
      <trkpt lat="43.23423" lon="0.08223">
        <ele>319</ele>
        <time>2020-05-16T12:24:34Z</time>
      </trkpt>
      <trkpt lat="43.23432" lon="0.08241">
        <ele>319</ele>
        <time>2020-05-16T12:25:01Z</time>
      </trkpt>
      <trkpt lat="43.23447" lon="0.08257">
        <ele>318</ele>
        <time>2020-05-16T12:25:16Z</time>
      </trkpt>
      <trkpt lat="43.2346" lon="0.08359">
        <ele>317</ele>
        <time>2020-05-16T12:26:26Z</time>
      </trkpt>
      <trkpt lat="43.23487" lon="0.08415">
        <ele>317</ele>
        <time>2020-05-16T12:26:57Z</time>
      </trkpt>
      <trkpt lat="43.23497" lon="0.08454">
        <ele>317</ele>
        <time>2020-05-16T12:27:13Z</time>
      </trkpt>
      <trkpt lat="43.23506" lon="0.08472">
        <ele>316</ele>
        <time>2020-05-16T12:27:20Z</time>
      </trkpt>
      <trkpt lat="43.23517" lon="0.08511">
        <ele>315</ele>
        <time>2020-05-16T12:27:50Z</time>
      </trkpt>
      <trkpt lat="43.23548" lon="0.08579">
        <ele>315</ele>
        <time>2020-05-16T12:28:29Z</time>
      </trkpt>
      <trkpt lat="43.23564" lon="0.08588">
        <ele>315</ele>
        <time>2020-05-16T12:28:46Z</time>
      </trkpt>
      <trkpt lat="43.23578" lon="0.08579">
        <ele>312</ele>
        <time>2020-05-16T12:29:02Z</time>
      </trkpt>
      <trkpt lat="43.23599" lon="0.08567">
        <ele>312</ele>
        <time>2020-05-16T12:29:22Z</time>
      </trkpt>
      <trkpt lat="43.23602" lon="0.08558">
        <ele>312</ele>
        <time>2020-05-16T12:29:29Z</time>
      </trkpt>
      <trkpt lat="43.23604" lon="0.08547">
        <ele>312</ele>
        <time>2020-05-16T12:29:36Z</time>
      </trkpt>
      <trkpt lat="43.23612" lon="0.0854">
        <ele>311</ele>
        <time>2020-05-16T12:29:45Z</time>
      </trkpt>
      <trkpt lat="43.23616" lon="0.0853">
        <ele>311</ele>
        <time>2020-05-16T12:29:52Z</time>
      </trkpt>
      <trkpt lat="43.23615" lon="0.08488">
        <ele>311</ele>
        <time>2020-05-16T12:30:34Z</time>
      </trkpt>
      <trkpt lat="43.23636" lon="0.08452">
        <ele>310</ele>
        <time>2020-05-16T12:31:12Z</time>
      </trkpt>
      <trkpt lat="43.23688" lon="0.08421">
        <ele>309</ele>
        <time>2020-05-16T12:31:50Z</time>
      </trkpt>
      <trkpt lat="43.23738" lon="0.08378">
        <ele>309</ele>
        <time>2020-05-16T12:32:42Z</time>
      </trkpt>
      <trkpt lat="43.23819" lon="0.08343">
        <ele>309</ele>
        <time>2020-05-16T12:33:24Z</time>
      </trkpt>
      <trkpt lat="43.23877" lon="0.08329">
        <ele>308</ele>
        <time>2020-05-16T12:33:57Z</time>
      </trkpt>
      <trkpt lat="43.23888" lon="0.0832">
        <ele>308</ele>
        <time>2020-05-16T12:34:05Z</time>
      </trkpt>
      <trkpt lat="43.23931" lon="0.08314">
        <ele>307</ele>
        <time>2020-05-16T12:34:31Z</time>
      </trkpt>
      <trkpt lat="43.23943" lon="0.08297">
        <ele>307</ele>
        <time>2020-05-16T12:34:41Z</time>
      </trkpt>
      <trkpt lat="43.23959" lon="0.08288">
        <ele>308</ele>
        <time>2020-05-16T12:34:54Z</time>
      </trkpt>
      <trkpt lat="43.23971" lon="0.0828">
        <ele>309</ele>
        <time>2020-05-16T12:35:06Z</time>
      </trkpt>
      <trkpt lat="43.23967" lon="0.08318">
        <ele>311</ele>
        <time>2020-05-16T12:35:52Z</time>
      </trkpt>
      <trkpt lat="43.23962" lon="0.08355">
        <ele>310</ele>
        <time>2020-05-16T12:36:16Z</time>
      </trkpt>
      <trkpt lat="43.23968" lon="0.08362">
        <ele>310</ele>
        <time>2020-05-16T12:36:24Z</time>
      </trkpt>
      <trkpt lat="43.23971" lon="0.08352">
        <ele>308</ele>
        <time>2020-05-16T12:36:40Z</time>
      </trkpt>
      <trkpt lat="43.23978" lon="0.08348">
        <ele>308</ele>
        <time>2020-05-16T12:36:58Z</time>
      </trkpt>
      <trkpt lat="43.23986" lon="0.08338">
        <ele>308</ele>
        <time>2020-05-16T12:37:17Z</time>
      </trkpt>
      <trkpt lat="43.23996" lon="0.08339">
        <ele>308</ele>
        <time>2020-05-16T12:37:26Z</time>
      </trkpt>
      <trkpt lat="43.24003" lon="0.08338">
        <ele>308</ele>
        <time>2020-05-16T12:37:31Z</time>
      </trkpt>
      <trkpt lat="43.24011" lon="0.08335">
        <ele>308</ele>
        <time>2020-05-16T12:37:36Z</time>
      </trkpt>
      <trkpt lat="43.24038" lon="0.08312">
        <ele>307</ele>
        <time>2020-05-16T12:38:01Z</time>
      </trkpt>
      <trkpt lat="43.24046" lon="0.08309">
        <ele>307</ele>
        <time>2020-05-16T12:38:06Z</time>
      </trkpt>
      <trkpt lat="43.24076" lon="0.08286">
        <ele>307</ele>
        <time>2020-05-16T12:38:38Z</time>
      </trkpt>
      <trkpt lat="43.24082" lon="0.0828">
        <ele>306</ele>
        <time>2020-05-16T12:38:46Z</time>
      </trkpt>
      <trkpt lat="43.2409" lon="0.08277">
        <ele>306</ele>
        <time>2020-05-16T12:38:55Z</time>
      </trkpt>
      <trkpt lat="43.24104" lon="0.08273">
        <ele>306</ele>
        <time>2020-05-16T12:39:10Z</time>
      </trkpt>
      <trkpt lat="43.24121" lon="0.08263">
        <ele>304</ele>
        <time>2020-05-16T12:39:39Z</time>
      </trkpt>
      <trkpt lat="43.24167" lon="0.08257">
        <ele>304</ele>
        <time>2020-05-16T12:40:12Z</time>
      </trkpt>
      <trkpt lat="43.24183" lon="0.08256">
        <ele>304</ele>
        <time>2020-05-16T12:40:21Z</time>
      </trkpt>
      <trkpt lat="43.24197" lon="0.08249">
        <ele>304</ele>
        <time>2020-05-16T12:40:30Z</time>
      </trkpt>
      <trkpt lat="43.24257" lon="0.08256">
        <ele>303</ele>
        <time>2020-05-16T12:41:06Z</time>
      </trkpt>
      <trkpt lat="43.24272" lon="0.08259">
        <ele>302</ele>
        <time>2020-05-16T12:41:20Z</time>
      </trkpt>
      <trkpt lat="43.24317" lon="0.08276">
        <ele>302</ele>
        <time>2020-05-16T12:41:53Z</time>
      </trkpt>
      <trkpt lat="43.24346" lon="0.08273">
        <ele>302</ele>
        <time>2020-05-16T12:42:10Z</time>
      </trkpt>
      <trkpt lat="43.24371" lon="0.08268">
        <ele>302</ele>
        <time>2020-05-16T12:42:45Z</time>
      </trkpt>
      <trkpt lat="43.24384" lon="0.08261">
        <ele>302</ele>
        <time>2020-05-16T12:42:57Z</time>
      </trkpt>
      <trkpt lat="43.24398" lon="0.0826">
        <ele>301</ele>
        <time>2020-05-16T12:43:35Z</time>
      </trkpt>
      <trkpt lat="43.24472" lon="0.08276">
        <ele>301</ele>
        <time>2020-05-16T12:44:25Z</time>
      </trkpt>
      <trkpt lat="43.24492" lon="0.08303">
        <ele>301</ele>
        <time>2020-05-16T12:44:46Z</time>
      </trkpt>
      <trkpt lat="43.2452" lon="0.08318">
        <ele>301</ele>
        <time>2020-05-16T12:45:07Z</time>
      </trkpt>
      <trkpt lat="43.24579" lon="0.08334">
        <ele>301</ele>
        <time>2020-05-16T12:45:41Z</time>
      </trkpt>
      <trkpt lat="43.24637" lon="0.08345">
        <ele>300</ele>
        <time>2020-05-16T12:46:13Z</time>
      </trkpt>
      <trkpt lat="43.24699" lon="0.08348">
        <ele>301</ele>
        <time>2020-05-16T12:46:46Z</time>
      </trkpt>
      <trkpt lat="43.24759" lon="0.08346">
        <ele>300</ele>
        <time>2020-05-16T12:47:27Z</time>
      </trkpt>
      <trkpt lat="43.24793" lon="0.08345">
        <ele>299</ele>
        <time>2020-05-16T12:47:54Z</time>
      </trkpt>
      <trkpt lat="43.24808" lon="0.08337">
        <ele>299</ele>
        <time>2020-05-16T12:48:11Z</time>
      </trkpt>
      <trkpt lat="43.24815" lon="0.08337">
        <ele>299</ele>
        <time>2020-05-16T12:48:18Z</time>
      </trkpt>
      <trkpt lat="43.24846" lon="0.08325">
        <ele>299</ele>
        <time>2020-05-16T12:48:43Z</time>
      </trkpt>
      <trkpt lat="43.24893" lon="0.08326">
        <ele>299</ele>
        <time>2020-05-16T12:49:18Z</time>
      </trkpt>
      <trkpt lat="43.24932" lon="0.08316">
        <ele>299</ele>
        <time>2020-05-16T12:49:45Z</time>
      </trkpt>
      <trkpt lat="43.24947" lon="0.08322">
        <ele>298</ele>
        <time>2020-05-16T12:49:53Z</time>
      </trkpt>
      <trkpt lat="43.24971" lon="0.08323">
        <ele>298</ele>
        <time>2020-05-16T12:50:12Z</time>
      </trkpt>
      <trkpt lat="43.25001" lon="0.08332">
        <ele>298</ele>
        <time>2020-05-16T12:50:34Z</time>
      </trkpt>
      <trkpt lat="43.25048" lon="0.0833">
        <ele>298</ele>
        <time>2020-05-16T12:51:09Z</time>
      </trkpt>
      <trkpt lat="43.2508" lon="0.08336">
        <ele>298</ele>
        <time>2020-05-16T12:51:31Z</time>
      </trkpt>
      <trkpt lat="43.25095" lon="0.08343">
        <ele>298</ele>
        <time>2020-05-16T12:51:43Z</time>
      </trkpt>
      <trkpt lat="43.25104" lon="0.08342">
        <ele>298</ele>
        <time>2020-05-16T12:51:50Z</time>
      </trkpt>
      <trkpt lat="43.25119" lon="0.08344">
        <ele>298</ele>
        <time>2020-05-16T12:52:00Z</time>
      </trkpt>
      <trkpt lat="43.25151" lon="0.08342">
        <ele>298</ele>
        <time>2020-05-16T12:52:25Z</time>
      </trkpt>
      <trkpt lat="43.25159" lon="0.08346">
        <ele>298</ele>
        <time>2020-05-16T12:52:31Z</time>
      </trkpt>
      <trkpt lat="43.25183" lon="0.0837">
        <ele>298</ele>
        <time>2020-05-16T12:52:52Z</time>
      </trkpt>
      <trkpt lat="43.2519" lon="0.08373">
        <ele>298</ele>
        <time>2020-05-16T12:52:58Z</time>
      </trkpt>
      <trkpt lat="43.25234" lon="0.08373">
        <ele>297</ele>
        <time>2020-05-16T12:53:33Z</time>
      </trkpt>
      <trkpt lat="43.2524" lon="0.08382">
        <ele>297</ele>
        <time>2020-05-16T12:53:40Z</time>
      </trkpt>
      <trkpt lat="43.25252" lon="0.08407">
        <ele>296</ele>
        <time>2020-05-16T12:53:57Z</time>
      </trkpt>
      <trkpt lat="43.25255" lon="0.08409">
        <ele>296</ele>
        <time>2020-05-16T12:54:05Z</time>
      </trkpt>
      <trkpt lat="43.25252" lon="0.08416">
        <ele>296</ele>
        <time>2020-05-16T12:55:19Z</time>
      </trkpt>
      <trkpt lat="43.25252" lon="0.08424">
        <ele>296</ele>
        <time>2020-05-16T12:55:23Z</time>
      </trkpt>
      <trkpt lat="43.25257" lon="0.08428">
        <ele>296</ele>
        <time>2020-05-16T12:55:28Z</time>
      </trkpt>
      <trkpt lat="43.25272" lon="0.08419">
        <ele>296</ele>
        <time>2020-05-16T12:55:39Z</time>
      </trkpt>
      <trkpt lat="43.2528" lon="0.08409">
        <ele>296</ele>
        <time>2020-05-16T12:55:46Z</time>
      </trkpt>
      <trkpt lat="43.25287" lon="0.08408">
        <ele>296</ele>
        <time>2020-05-16T12:55:50Z</time>
      </trkpt>
      <trkpt lat="43.25312" lon="0.08413">
        <ele>296</ele>
        <time>2020-05-16T12:56:07Z</time>
      </trkpt>
      <trkpt lat="43.25337" lon="0.08425">
        <ele>296</ele>
        <time>2020-05-16T12:56:29Z</time>
      </trkpt>
      <trkpt lat="43.25343" lon="0.08425">
        <ele>296</ele>
        <time>2020-05-16T12:56:33Z</time>
      </trkpt>
      <trkpt lat="43.2535" lon="0.08423">
        <ele>296</ele>
        <time>2020-05-16T12:56:37Z</time>
      </trkpt>
      <trkpt lat="43.25357" lon="0.08424">
        <ele>296</ele>
        <time>2020-05-16T12:56:41Z</time>
      </trkpt>
      <trkpt lat="43.2536" lon="0.08421">
        <ele>295</ele>
        <time>2020-05-16T12:56:43Z</time>
      </trkpt>
      <trkpt lat="43.25379" lon="0.08422">
        <ele>295</ele>
        <time>2020-05-16T12:56:58Z</time>
      </trkpt>
      <trkpt lat="43.25383" lon="0.08423">
        <ele>295</ele>
        <time>2020-05-16T12:57:01Z</time>
      </trkpt>
      <trkpt lat="43.25391" lon="0.08421">
        <ele>294</ele>
        <time>2020-05-16T12:57:08Z</time>
      </trkpt>
      <trkpt lat="43.25421" lon="0.08419">
        <ele>294</ele>
        <time>2020-05-16T12:57:32Z</time>
      </trkpt>
      <trkpt lat="43.25431" lon="0.08417">
        <ele>294</ele>
        <time>2020-05-16T12:57:40Z</time>
      </trkpt>
      <trkpt lat="43.25437" lon="0.08417">
        <ele>294</ele>
        <time>2020-05-16T12:57:45Z</time>
      </trkpt>
      <trkpt lat="43.25457" lon="0.0841">
        <ele>294</ele>
        <time>2020-05-16T12:58:01Z</time>
      </trkpt>
      <trkpt lat="43.25487" lon="0.08407">
        <ele>294</ele>
        <time>2020-05-16T12:58:21Z</time>
      </trkpt>
      <trkpt lat="43.25493" lon="0.08404">
        <ele>294</ele>
        <time>2020-05-16T12:58:25Z</time>
      </trkpt>
      <trkpt lat="43.25506" lon="0.08399">
        <ele>293</ele>
        <time>2020-05-16T12:58:34Z</time>
      </trkpt>
      <trkpt lat="43.25528" lon="0.0839">
        <ele>293</ele>
        <time>2020-05-16T12:58:50Z</time>
      </trkpt>
      <trkpt lat="43.25555" lon="0.08384">
        <ele>294</ele>
        <time>2020-05-16T12:59:12Z</time>
      </trkpt>
      <trkpt lat="43.25559" lon="0.08386">
        <ele>294</ele>
        <time>2020-05-16T12:59:15Z</time>
      </trkpt>
      <trkpt lat="43.25563" lon="0.08385">
        <ele>294</ele>
        <time>2020-05-16T12:59:19Z</time>
      </trkpt>
      <trkpt lat="43.2558" lon="0.08391">
        <ele>293</ele>
        <time>2020-05-16T12:59:31Z</time>
      </trkpt>
      <trkpt lat="43.25593" lon="0.08389">
        <ele>294</ele>
        <time>2020-05-16T12:59:40Z</time>
      </trkpt>
      <trkpt lat="43.25597" lon="0.08388">
        <ele>294</ele>
        <time>2020-05-16T12:59:44Z</time>
      </trkpt>
      <trkpt lat="43.25607" lon="0.08388">
        <ele>293</ele>
        <time>2020-05-16T12:59:52Z</time>
      </trkpt>
      <trkpt lat="43.25611" lon="0.08387">
        <ele>293</ele>
        <time>2020-05-16T12:59:55Z</time>
      </trkpt>
      <trkpt lat="43.25616" lon="0.08388">
        <ele>293</ele>
        <time>2020-05-16T12:59:58Z</time>
      </trkpt>
      <trkpt lat="43.2562" lon="0.08388">
        <ele>293</ele>
        <time>2020-05-16T13:00:01Z</time>
      </trkpt>
      <trkpt lat="43.25633" lon="0.08382">
        <ele>292</ele>
        <time>2020-05-16T13:00:13Z</time>
      </trkpt>
      <trkpt lat="43.25652" lon="0.08383">
        <ele>292</ele>
        <time>2020-05-16T13:00:27Z</time>
      </trkpt>
      <trkpt lat="43.25663" lon="0.08384">
        <ele>292</ele>
        <time>2020-05-16T13:00:35Z</time>
      </trkpt>
      <trkpt lat="43.25669" lon="0.08387">
        <ele>292</ele>
        <time>2020-05-16T13:00:40Z</time>
      </trkpt>
      <trkpt lat="43.25682" lon="0.08381">
        <ele>292</ele>
        <time>2020-05-16T13:00:49Z</time>
      </trkpt>
      <trkpt lat="43.25706" lon="0.08374">
        <ele>292</ele>
        <time>2020-05-16T13:01:06Z</time>
      </trkpt>
      <trkpt lat="43.25713" lon="0.0837">
        <ele>292</ele>
        <time>2020-05-16T13:01:12Z</time>
      </trkpt>
      <trkpt lat="43.25722" lon="0.08369">
        <ele>292</ele>
        <time>2020-05-16T13:01:19Z</time>
      </trkpt>
      <trkpt lat="43.25731" lon="0.0837">
        <ele>292</ele>
        <time>2020-05-16T13:01:26Z</time>
      </trkpt>
      <trkpt lat="43.25743" lon="0.08367">
        <ele>292</ele>
        <time>2020-05-16T13:01:35Z</time>
      </trkpt>
      <trkpt lat="43.25747" lon="0.08368">
        <ele>293</ele>
        <time>2020-05-16T13:01:39Z</time>
      </trkpt>
      <trkpt lat="43.25751" lon="0.08367">
        <ele>292</ele>
        <time>2020-05-16T13:01:42Z</time>
      </trkpt>
      <trkpt lat="43.25755" lon="0.08365">
        <ele>292</ele>
        <time>2020-05-16T13:01:46Z</time>
      </trkpt>
      <trkpt lat="43.25781" lon="0.08359">
        <ele>292</ele>
        <time>2020-05-16T13:02:05Z</time>
      </trkpt>
      <trkpt lat="43.25787" lon="0.08361">
        <ele>292</ele>
        <time>2020-05-16T13:02:10Z</time>
      </trkpt>
      <trkpt lat="43.25807" lon="0.08363">
        <ele>292</ele>
        <time>2020-05-16T13:02:47Z</time>
      </trkpt>
      <trkpt lat="43.25813" lon="0.08366">
        <ele>292</ele>
        <time>2020-05-16T13:02:52Z</time>
      </trkpt>
      <trkpt lat="43.25836" lon="0.08364">
        <ele>292</ele>
        <time>2020-05-16T13:03:25Z</time>
      </trkpt>
      <trkpt lat="43.2585" lon="0.08369">
        <ele>292</ele>
        <time>2020-05-16T13:03:40Z</time>
      </trkpt>
      <trkpt lat="43.25869" lon="0.0837">
        <ele>292</ele>
        <time>2020-05-16T13:04:05Z</time>
      </trkpt>
      <trkpt lat="43.25891" lon="0.08368">
        <ele>292</ele>
        <time>2020-05-16T13:04:32Z</time>
      </trkpt>
      <trkpt lat="43.25953" lon="0.08369">
        <ele>292</ele>
        <time>2020-05-16T13:05:07Z</time>
      </trkpt>
      <trkpt lat="43.25997" lon="0.08369">
        <ele>291</ele>
        <time>2020-05-16T13:05:37Z</time>
      </trkpt>
      <trkpt lat="43.2606" lon="0.08374">
        <ele>291</ele>
        <time>2020-05-16T13:06:15Z</time>
      </trkpt>
      <trkpt lat="43.26075" lon="0.08371">
        <ele>291</ele>
        <time>2020-05-16T13:06:24Z</time>
      </trkpt>
      <trkpt lat="43.26099" lon="0.08365">
        <ele>291</ele>
        <time>2020-05-16T13:06:44Z</time>
      </trkpt>
      <trkpt lat="43.26105" lon="0.08365">
        <ele>291</ele>
        <time>2020-05-16T13:06:50Z</time>
      </trkpt>
      <trkpt lat="43.26113" lon="0.0836">
        <ele>290</ele>
        <time>2020-05-16T13:06:59Z</time>
      </trkpt>
      <trkpt lat="43.26139" lon="0.08354">
        <ele>290</ele>
        <time>2020-05-16T13:07:28Z</time>
      </trkpt>
      <trkpt lat="43.26146" lon="0.0835">
        <ele>290</ele>
        <time>2020-05-16T13:07:34Z</time>
      </trkpt>
      <trkpt lat="43.26155" lon="0.08344">
        <ele>290</ele>
        <time>2020-05-16T13:07:48Z</time>
      </trkpt>
      <trkpt lat="43.26202" lon="0.0834">
        <ele>290</ele>
        <time>2020-05-16T13:08:22Z</time>
      </trkpt>
      <trkpt lat="43.26248" lon="0.08331">
        <ele>289</ele>
        <time>2020-05-16T13:09:00Z</time>
      </trkpt>
      <trkpt lat="43.26295" lon="0.08326">
        <ele>289</ele>
        <time>2020-05-16T13:09:34Z</time>
      </trkpt>
      <trkpt lat="43.26357" lon="0.08322">
        <ele>289</ele>
        <time>2020-05-16T13:10:10Z</time>
      </trkpt>
      <trkpt lat="43.26401" lon="0.08311">
        <ele>288</ele>
        <time>2020-05-16T13:10:46Z</time>
      </trkpt>
      <trkpt lat="43.26449" lon="0.0831">
        <ele>288</ele>
        <time>2020-05-16T13:11:09Z</time>
      </trkpt>
      <trkpt lat="43.26465" lon="0.08312">
        <ele>288</ele>
        <time>2020-05-16T13:11:19Z</time>
      </trkpt>
      <trkpt lat="43.26479" lon="0.08318">
        <ele>287</ele>
        <time>2020-05-16T13:11:28Z</time>
      </trkpt>
      <trkpt lat="43.26501" lon="0.08348">
        <ele>287</ele>
        <time>2020-05-16T13:11:48Z</time>
      </trkpt>
      <trkpt lat="43.2651" lon="0.08355">
        <ele>287</ele>
        <time>2020-05-16T13:11:56Z</time>
      </trkpt>
      <trkpt lat="43.26525" lon="0.08372">
        <ele>287</ele>
        <time>2020-05-16T13:12:08Z</time>
      </trkpt>
      <trkpt lat="43.26535" lon="0.0838">
        <ele>287</ele>
        <time>2020-05-16T13:12:15Z</time>
      </trkpt>
      <trkpt lat="43.2654" lon="0.08385">
        <ele>286</ele>
        <time>2020-05-16T13:12:21Z</time>
      </trkpt>
      <trkpt lat="43.26557" lon="0.08397">
        <ele>286</ele>
        <time>2020-05-16T13:12:35Z</time>
      </trkpt>
      <trkpt lat="43.26574" lon="0.08403">
        <ele>286</ele>
        <time>2020-05-16T13:12:49Z</time>
      </trkpt>
      <trkpt lat="43.26597" lon="0.08419">
        <ele>285</ele>
        <time>2020-05-16T13:13:11Z</time>
      </trkpt>
      <trkpt lat="43.2661" lon="0.08422">
        <ele>285</ele>
        <time>2020-05-16T13:13:20Z</time>
      </trkpt>
      <trkpt lat="43.26647" lon="0.08448">
        <ele>285</ele>
        <time>2020-05-16T13:13:50Z</time>
      </trkpt>
      <trkpt lat="43.26658" lon="0.08452">
        <ele>285</ele>
        <time>2020-05-16T13:14:00Z</time>
      </trkpt>
      <trkpt lat="43.26664" lon="0.08451">
        <ele>285</ele>
        <time>2020-05-16T13:14:04Z</time>
      </trkpt>
      <trkpt lat="43.26705" lon="0.08454">
        <ele>284</ele>
        <time>2020-05-16T13:14:35Z</time>
      </trkpt>
      <trkpt lat="43.26713" lon="0.08456">
        <ele>284</ele>
        <time>2020-05-16T13:14:42Z</time>
      </trkpt>
      <trkpt lat="43.26753" lon="0.08452">
        <ele>283</ele>
        <time>2020-05-16T13:15:12Z</time>
      </trkpt>
      <trkpt lat="43.2676" lon="0.0845">
        <ele>283</ele>
        <time>2020-05-16T13:15:20Z</time>
      </trkpt>
      <trkpt lat="43.26766" lon="0.0845">
        <ele>283</ele>
        <time>2020-05-16T13:15:26Z</time>
      </trkpt>
      <trkpt lat="43.26771" lon="0.08446">
        <ele>283</ele>
        <time>2020-05-16T13:15:32Z</time>
      </trkpt>
      <trkpt lat="43.26777" lon="0.08437">
        <ele>283</ele>
        <time>2020-05-16T13:15:41Z</time>
      </trkpt>
      <trkpt lat="43.26784" lon="0.08433">
        <ele>283</ele>
        <time>2020-05-16T13:15:48Z</time>
      </trkpt>
      <trkpt lat="43.26789" lon="0.08434">
        <ele>282</ele>
        <time>2020-05-16T13:15:56Z</time>
      </trkpt>
      <trkpt lat="43.26796" lon="0.0843">
        <ele>282</ele>
        <time>2020-05-16T13:16:14Z</time>
      </trkpt>
      <trkpt lat="43.26804" lon="0.08443">
        <ele>282</ele>
        <time>2020-05-16T13:16:22Z</time>
      </trkpt>
      <trkpt lat="43.26815" lon="0.08436">
        <ele>283</ele>
        <time>2020-05-16T13:16:34Z</time>
      </trkpt>
      <trkpt lat="43.2682" lon="0.0843">
        <ele>283</ele>
        <time>2020-05-16T13:16:38Z</time>
      </trkpt>
      <trkpt lat="43.26825" lon="0.08428">
        <ele>282</ele>
        <time>2020-05-16T13:16:44Z</time>
      </trkpt>
      <trkpt lat="43.26829" lon="0.08422">
        <ele>282</ele>
        <time>2020-05-16T13:16:52Z</time>
      </trkpt>
      <trkpt lat="43.26847" lon="0.08415">
        <ele>282</ele>
        <time>2020-05-16T13:17:13Z</time>
      </trkpt>
      <trkpt lat="43.26862" lon="0.084">
        <ele>282</ele>
        <time>2020-05-16T13:17:33Z</time>
      </trkpt>
      <trkpt lat="43.26871" lon="0.08398">
        <ele>281</ele>
        <time>2020-05-16T13:17:39Z</time>
      </trkpt>
      <trkpt lat="43.26892" lon="0.08383">
        <ele>281</ele>
        <time>2020-05-16T13:17:57Z</time>
      </trkpt>
      <trkpt lat="43.26898" lon="0.08378">
        <ele>281</ele>
        <time>2020-05-16T13:18:06Z</time>
      </trkpt>
      <trkpt lat="43.26905" lon="0.08374">
        <ele>281</ele>
        <time>2020-05-16T13:18:13Z</time>
      </trkpt>
      <trkpt lat="43.26916" lon="0.08375">
        <ele>281</ele>
        <time>2020-05-16T13:18:23Z</time>
      </trkpt>
      <trkpt lat="43.26932" lon="0.08366">
        <ele>280</ele>
        <time>2020-05-16T13:18:41Z</time>
      </trkpt>
      <trkpt lat="43.26968" lon="0.08365">
        <ele>280</ele>
        <time>2020-05-16T13:19:11Z</time>
      </trkpt>
      <trkpt lat="43.27013" lon="0.08386">
        <ele>281</ele>
        <time>2020-05-16T13:19:45Z</time>
      </trkpt>
      <trkpt lat="43.2706" lon="0.08372">
        <ele>281</ele>
        <time>2020-05-16T13:20:23Z</time>
      </trkpt>
      <trkpt lat="43.2708" lon="0.08362">
        <ele>281</ele>
        <time>2020-05-16T13:20:37Z</time>
      </trkpt>
      <trkpt lat="43.27087" lon="0.0836">
        <ele>281</ele>
        <time>2020-05-16T13:20:43Z</time>
      </trkpt>
      <trkpt lat="43.27106" lon="0.08346">
        <ele>281</ele>
        <time>2020-05-16T13:21:00Z</time>
      </trkpt>
      <trkpt lat="43.27147" lon="0.08344">
        <ele>280</ele>
        <time>2020-05-16T13:21:30Z</time>
      </trkpt>
      <trkpt lat="43.27154" lon="0.08347">
        <ele>280</ele>
        <time>2020-05-16T13:21:36Z</time>
      </trkpt>
      <trkpt lat="43.27192" lon="0.0837">
        <ele>280</ele>
        <time>2020-05-16T13:22:11Z</time>
      </trkpt>
      <trkpt lat="43.27237" lon="0.08385">
        <ele>279</ele>
        <time>2020-05-16T13:22:44Z</time>
      </trkpt>
      <trkpt lat="43.27284" lon="0.08387">
        <ele>279</ele>
        <time>2020-05-16T13:23:16Z</time>
      </trkpt>
      <trkpt lat="43.27307" lon="0.08381">
        <ele>279</ele>
        <time>2020-05-16T13:23:36Z</time>
      </trkpt>
      <trkpt lat="43.27313" lon="0.08383">
        <ele>279</ele>
        <time>2020-05-16T13:23:40Z</time>
      </trkpt>
      <trkpt lat="43.27321" lon="0.0838">
        <ele>279</ele>
        <time>2020-05-16T13:23:46Z</time>
      </trkpt>
      <trkpt lat="43.27369" lon="0.08374">
        <ele>278</ele>
        <time>2020-05-16T13:24:18Z</time>
      </trkpt>
      <trkpt lat="43.27414" lon="0.08378">
        <ele>278</ele>
        <time>2020-05-16T13:24:50Z</time>
      </trkpt>
      <trkpt lat="43.27422" lon="0.08379">
        <ele>278</ele>
        <time>2020-05-16T13:24:55Z</time>
      </trkpt>
      <trkpt lat="43.27428" lon="0.08377">
        <ele>278</ele>
        <time>2020-05-16T13:25:00Z</time>
      </trkpt>
      <trkpt lat="43.27462" lon="0.08383">
        <ele>278</ele>
        <time>2020-05-16T13:25:28Z</time>
      </trkpt>
      <trkpt lat="43.2747" lon="0.08387">
        <ele>278</ele>
        <time>2020-05-16T13:25:33Z</time>
      </trkpt>
      <trkpt lat="43.27475" lon="0.08389">
        <ele>278</ele>
        <time>2020-05-16T13:25:38Z</time>
      </trkpt>
      <trkpt lat="43.27492" lon="0.08389">
        <ele>278</ele>
        <time>2020-05-16T13:25:52Z</time>
      </trkpt>
      <trkpt lat="43.27525" lon="0.08398">
        <ele>278</ele>
        <time>2020-05-16T13:26:18Z</time>
      </trkpt>
      <trkpt lat="43.27531" lon="0.08399">
        <ele>278</ele>
        <time>2020-05-16T13:26:23Z</time>
      </trkpt>
      <trkpt lat="43.27537" lon="0.08401">
        <ele>278</ele>
        <time>2020-05-16T13:26:28Z</time>
      </trkpt>
      <trkpt lat="43.27542" lon="0.08402">
        <ele>278</ele>
        <time>2020-05-16T13:26:32Z</time>
      </trkpt>
      <trkpt lat="43.27564" lon="0.08414">
        <ele>279</ele>
        <time>2020-05-16T13:26:52Z</time>
      </trkpt>
      <trkpt lat="43.27573" lon="0.08415">
        <ele>279</ele>
        <time>2020-05-16T13:26:59Z</time>
      </trkpt>
      <trkpt lat="43.2758" lon="0.08418">
        <ele>278</ele>
        <time>2020-05-16T13:27:05Z</time>
      </trkpt>
      <trkpt lat="43.27609" lon="0.08408">
        <ele>278</ele>
        <time>2020-05-16T13:27:30Z</time>
      </trkpt>
      <trkpt lat="43.27618" lon="0.08408">
        <ele>277</ele>
        <time>2020-05-16T13:27:35Z</time>
      </trkpt>
      <trkpt lat="43.27622" lon="0.08404">
        <ele>277</ele>
        <time>2020-05-16T13:27:39Z</time>
      </trkpt>
      <trkpt lat="43.27628" lon="0.08402">
        <ele>277</ele>
        <time>2020-05-16T13:27:44Z</time>
      </trkpt>
      <trkpt lat="43.27636" lon="0.08402">
        <ele>277</ele>
        <time>2020-05-16T13:27:59Z</time>
      </trkpt>
      <trkpt lat="43.27643" lon="0.08405">
        <ele>277</ele>
        <time>2020-05-16T13:28:05Z</time>
      </trkpt>
      <trkpt lat="43.27641" lon="0.08419">
        <ele>278</ele>
        <time>2020-05-16T13:29:08Z</time>
      </trkpt>
      <trkpt lat="43.2764" lon="0.08461">
        <ele>278</ele>
        <time>2020-05-16T13:29:25Z</time>
      </trkpt>
      <trkpt lat="43.27649" lon="0.08478">
        <ele>278</ele>
        <time>2020-05-16T13:29:32Z</time>
      </trkpt>
      <trkpt lat="43.27688" lon="0.08481">
        <ele>279</ele>
        <time>2020-05-16T13:30:04Z</time>
      </trkpt>
      <trkpt lat="43.27711" lon="0.08488">
        <ele>279</ele>
        <time>2020-05-16T13:30:24Z</time>
      </trkpt>
      <trkpt lat="43.27755" lon="0.08483">
        <ele>279</ele>
        <time>2020-05-16T13:30:59Z</time>
      </trkpt>
      <trkpt lat="43.27766" lon="0.0848">
        <ele>278</ele>
        <time>2020-05-16T13:31:07Z</time>
      </trkpt>
      <trkpt lat="43.27772" lon="0.08477">
        <ele>278</ele>
        <time>2020-05-16T13:31:11Z</time>
      </trkpt>
      <trkpt lat="43.27809" lon="0.08474">
        <ele>278</ele>
        <time>2020-05-16T13:31:39Z</time>
      </trkpt>
      <trkpt lat="43.27817" lon="0.08475">
        <ele>278</ele>
        <time>2020-05-16T13:31:44Z</time>
      </trkpt>
      <trkpt lat="43.27862" lon="0.08465">
        <ele>278</ele>
        <time>2020-05-16T13:32:18Z</time>
      </trkpt>
      <trkpt lat="43.27874" lon="0.08461">
        <ele>277</ele>
        <time>2020-05-16T13:32:28Z</time>
      </trkpt>
      <trkpt lat="43.27898" lon="0.0846">
        <ele>277</ele>
        <time>2020-05-16T13:32:47Z</time>
      </trkpt>
      <trkpt lat="43.27903" lon="0.08455">
        <ele>277</ele>
        <time>2020-05-16T13:32:50Z</time>
      </trkpt>
      <trkpt lat="43.27907" lon="0.08448">
        <ele>277</ele>
        <time>2020-05-16T13:32:54Z</time>
      </trkpt>
      <trkpt lat="43.27919" lon="0.08449">
        <ele>277</ele>
        <time>2020-05-16T13:33:05Z</time>
      </trkpt>
      <trkpt lat="43.27944" lon="0.08465">
        <ele>276</ele>
        <time>2020-05-16T13:33:34Z</time>
      </trkpt>
      <trkpt lat="43.27952" lon="0.08466">
        <ele>276</ele>
        <time>2020-05-16T13:33:41Z</time>
      </trkpt>
      <trkpt lat="43.27993" lon="0.08498">
        <ele>275</ele>
        <time>2020-05-16T13:34:16Z</time>
      </trkpt>
      <trkpt lat="43.28007" lon="0.08505">
        <ele>275</ele>
        <time>2020-05-16T13:34:28Z</time>
      </trkpt>
      <trkpt lat="43.28014" lon="0.08506">
        <ele>275</ele>
        <time>2020-05-16T13:34:33Z</time>
      </trkpt>
      <trkpt lat="43.28034" lon="0.08512">
        <ele>276</ele>
        <time>2020-05-16T13:34:48Z</time>
      </trkpt>
      <trkpt lat="43.28082" lon="0.08522">
        <ele>276</ele>
        <time>2020-05-16T13:35:24Z</time>
      </trkpt>
      <trkpt lat="43.28099" lon="0.08528">
        <ele>275</ele>
        <time>2020-05-16T13:35:39Z</time>
      </trkpt>
      <trkpt lat="43.28105" lon="0.08534">
        <ele>275</ele>
        <time>2020-05-16T13:35:46Z</time>
      </trkpt>
      <trkpt lat="43.28128" lon="0.0854">
        <ele>275</ele>
        <time>2020-05-16T13:36:06Z</time>
      </trkpt>
      <trkpt lat="43.28143" lon="0.0854">
        <ele>274</ele>
        <time>2020-05-16T13:36:19Z</time>
      </trkpt>
      <trkpt lat="43.2815" lon="0.08538">
        <ele>274</ele>
        <time>2020-05-16T13:36:25Z</time>
      </trkpt>
      <trkpt lat="43.28158" lon="0.08539">
        <ele>274</ele>
        <time>2020-05-16T13:36:32Z</time>
      </trkpt>
      <trkpt lat="43.28165" lon="0.08536">
        <ele>274</ele>
        <time>2020-05-16T13:36:38Z</time>
      </trkpt>
      <trkpt lat="43.28174" lon="0.08535">
        <ele>274</ele>
        <time>2020-05-16T13:36:51Z</time>
      </trkpt>
      <trkpt lat="43.28194" lon="0.08535">
        <ele>273</ele>
        <time>2020-05-16T13:37:09Z</time>
      </trkpt>
      <trkpt lat="43.28202" lon="0.08537">
        <ele>273</ele>
        <time>2020-05-16T13:37:14Z</time>
      </trkpt>
      <trkpt lat="43.28246" lon="0.0854">
        <ele>273</ele>
        <time>2020-05-16T13:37:46Z</time>
      </trkpt>
      <trkpt lat="43.28253" lon="0.08539">
        <ele>273</ele>
        <time>2020-05-16T13:37:50Z</time>
      </trkpt>
      <trkpt lat="43.28264" lon="0.08542">
        <ele>273</ele>
        <time>2020-05-16T13:37:59Z</time>
      </trkpt>
      <trkpt lat="43.28268" lon="0.08537">
        <ele>273</ele>
        <time>2020-05-16T13:38:05Z</time>
      </trkpt>
      <trkpt lat="43.28273" lon="0.08529">
        <ele>270</ele>
        <time>2020-05-16T13:38:32Z</time>
      </trkpt>
      <trkpt lat="43.28281" lon="0.08521">
        <ele>269</ele>
        <time>2020-05-16T13:38:42Z</time>
      </trkpt>
      <trkpt lat="43.28286" lon="0.08514">
        <ele>269</ele>
        <time>2020-05-16T13:38:46Z</time>
      </trkpt>
      <trkpt lat="43.28291" lon="0.08511">
        <ele>269</ele>
        <time>2020-05-16T13:38:51Z</time>
      </trkpt>
      <trkpt lat="43.28295" lon="0.08505">
        <ele>269</ele>
        <time>2020-05-16T13:38:55Z</time>
      </trkpt>
      <trkpt lat="43.283" lon="0.08499">
        <ele>269</ele>
        <time>2020-05-16T13:39:04Z</time>
      </trkpt>
      <trkpt lat="43.28309" lon="0.08501">
        <ele>269</ele>
        <time>2020-05-16T13:39:12Z</time>
      </trkpt>
      <trkpt lat="43.28313" lon="0.08498">
        <ele>269</ele>
        <time>2020-05-16T13:39:18Z</time>
      </trkpt>
      <trkpt lat="43.28322" lon="0.08498">
        <ele>269</ele>
        <time>2020-05-16T13:39:41Z</time>
      </trkpt>
      <trkpt lat="43.28338" lon="0.08483">
        <ele>269</ele>
        <time>2020-05-16T13:39:50Z</time>
      </trkpt>
      <trkpt lat="43.28352" lon="0.08466">
        <ele>268</ele>
        <time>2020-05-16T13:40:02Z</time>
      </trkpt>
      <trkpt lat="43.28354" lon="0.08457">
        <ele>268</ele>
        <time>2020-05-16T13:40:07Z</time>
      </trkpt>
      <trkpt lat="43.28355" lon="0.08449">
        <ele>268</ele>
        <time>2020-05-16T13:40:12Z</time>
      </trkpt>
      <trkpt lat="43.28358" lon="0.08441">
        <ele>268</ele>
        <time>2020-05-16T13:40:17Z</time>
      </trkpt>
      <trkpt lat="43.28357" lon="0.08425">
        <ele>268</ele>
        <time>2020-05-16T13:40:26Z</time>
      </trkpt>
      <trkpt lat="43.28358" lon="0.08394">
        <ele>268</ele>
        <time>2020-05-16T13:40:43Z</time>
      </trkpt>
      <trkpt lat="43.28356" lon="0.08385">
        <ele>268</ele>
        <time>2020-05-16T13:40:49Z</time>
      </trkpt>
      <trkpt lat="43.28358" lon="0.0835">
        <ele>268</ele>
        <time>2020-05-16T13:41:06Z</time>
      </trkpt>
      <trkpt lat="43.2836" lon="0.08335">
        <ele>268</ele>
        <time>2020-05-16T13:41:15Z</time>
      </trkpt>
      <trkpt lat="43.28365" lon="0.08328">
        <ele>269</ele>
        <time>2020-05-16T13:41:23Z</time>
      </trkpt>
      <trkpt lat="43.2837" lon="0.08323">
        <ele>269</ele>
        <time>2020-05-16T13:41:29Z</time>
      </trkpt>
      <trkpt lat="43.28379" lon="0.0832">
        <ele>270</ele>
        <time>2020-05-16T13:41:36Z</time>
      </trkpt>
      <trkpt lat="43.28391" lon="0.08324">
        <ele>270</ele>
        <time>2020-05-16T13:41:45Z</time>
      </trkpt>
      <trkpt lat="43.28395" lon="0.08323">
        <ele>271</ele>
        <time>2020-05-16T13:41:47Z</time>
      </trkpt>
      <trkpt lat="43.28399" lon="0.08324">
        <ele>271</ele>
        <time>2020-05-16T13:41:50Z</time>
      </trkpt>
      <trkpt lat="43.28403" lon="0.08324">
        <ele>271</ele>
        <time>2020-05-16T13:41:54Z</time>
      </trkpt>
      <trkpt lat="43.28407" lon="0.08327">
        <ele>271</ele>
        <time>2020-05-16T13:41:58Z</time>
      </trkpt>
      <trkpt lat="43.2842" lon="0.08328">
        <ele>270</ele>
        <time>2020-05-16T13:42:08Z</time>
      </trkpt>
      <trkpt lat="43.28425" lon="0.08325">
        <ele>270</ele>
        <time>2020-05-16T13:42:18Z</time>
      </trkpt>
      <trkpt lat="43.28434" lon="0.08322">
        <ele>270</ele>
        <time>2020-05-16T13:43:56Z</time>
      </trkpt>
      <trkpt lat="43.28453" lon="0.08321">
        <ele>270</ele>
        <time>2020-05-16T13:44:11Z</time>
      </trkpt>
      <trkpt lat="43.28459" lon="0.08323">
        <ele>270</ele>
        <time>2020-05-16T13:44:15Z</time>
      </trkpt>
      <trkpt lat="43.28464" lon="0.08326">
        <ele>270</ele>
        <time>2020-05-16T13:44:20Z</time>
      </trkpt>
      <trkpt lat="43.28488" lon="0.08324">
        <ele>269</ele>
        <time>2020-05-16T13:44:38Z</time>
      </trkpt>
      <trkpt lat="43.28505" lon="0.08329">
        <ele>268</ele>
        <time>2020-05-16T13:44:52Z</time>
      </trkpt>
      <trkpt lat="43.2851" lon="0.08333">
        <ele>268</ele>
        <time>2020-05-16T13:45:03Z</time>
      </trkpt>
      <trkpt lat="43.28537" lon="0.08336">
        <ele>269</ele>
        <time>2020-05-16T13:45:23Z</time>
      </trkpt>
      <trkpt lat="43.2854" lon="0.08335">
        <ele>269</ele>
        <time>2020-05-16T13:45:26Z</time>
      </trkpt>
      <trkpt lat="43.2857" lon="0.08334">
        <ele>269</ele>
        <time>2020-05-16T13:45:48Z</time>
      </trkpt>
      <trkpt lat="43.28574" lon="0.08332">
        <ele>269</ele>
        <time>2020-05-16T13:45:51Z</time>
      </trkpt>
      <trkpt lat="43.28585" lon="0.08333">
        <ele>269</ele>
        <time>2020-05-16T13:45:59Z</time>
      </trkpt>
      <trkpt lat="43.28592" lon="0.08331">
        <ele>269</ele>
        <time>2020-05-16T13:46:04Z</time>
      </trkpt>
      <trkpt lat="43.28597" lon="0.08328">
        <ele>269</ele>
        <time>2020-05-16T13:46:09Z</time>
      </trkpt>
      <trkpt lat="43.28601" lon="0.08322">
        <ele>269</ele>
        <time>2020-05-16T13:46:13Z</time>
      </trkpt>
      <trkpt lat="43.28606" lon="0.08317">
        <ele>269</ele>
        <time>2020-05-16T13:46:17Z</time>
      </trkpt>
      <trkpt lat="43.28621" lon="0.08289">
        <ele>269</ele>
        <time>2020-05-16T13:46:36Z</time>
      </trkpt>
      <trkpt lat="43.28632" lon="0.08282">
        <ele>269</ele>
        <time>2020-05-16T13:46:47Z</time>
      </trkpt>
      <trkpt lat="43.28643" lon="0.08278">
        <ele>269</ele>
        <time>2020-05-16T13:46:57Z</time>
      </trkpt>
      <trkpt lat="43.28675" lon="0.0826">
        <ele>269</ele>
        <time>2020-05-16T13:47:21Z</time>
      </trkpt>
      <trkpt lat="43.28705" lon="0.08233">
        <ele>270</ele>
        <time>2020-05-16T13:47:50Z</time>
      </trkpt>
      <trkpt lat="43.28718" lon="0.08216">
        <ele>270</ele>
        <time>2020-05-16T13:48:04Z</time>
      </trkpt>
      <trkpt lat="43.28738" lon="0.08203">
        <ele>269</ele>
        <time>2020-05-16T13:48:21Z</time>
      </trkpt>
      <trkpt lat="43.28774" lon="0.08196">
        <ele>269</ele>
        <time>2020-05-16T13:48:48Z</time>
      </trkpt>
      <trkpt lat="43.28779" lon="0.08199">
        <ele>269</ele>
        <time>2020-05-16T13:48:52Z</time>
      </trkpt>
      <trkpt lat="43.28784" lon="0.08205">
        <ele>269</ele>
        <time>2020-05-16T13:48:57Z</time>
      </trkpt>
      <trkpt lat="43.2881" lon="0.08249">
        <ele>268</ele>
        <time>2020-05-16T13:49:29Z</time>
      </trkpt>
      <trkpt lat="43.28818" lon="0.08271">
        <ele>268</ele>
        <time>2020-05-16T13:49:43Z</time>
      </trkpt>
      <trkpt lat="43.28821" lon="0.08289">
        <ele>268</ele>
        <time>2020-05-16T13:49:53Z</time>
      </trkpt>
      <trkpt lat="43.28821" lon="0.08297">
        <ele>268</ele>
        <time>2020-05-16T13:49:58Z</time>
      </trkpt>
      <trkpt lat="43.28822" lon="0.08306">
        <ele>268</ele>
        <time>2020-05-16T13:50:03Z</time>
      </trkpt>
      <trkpt lat="43.28825" lon="0.08323">
        <ele>268</ele>
        <time>2020-05-16T13:50:14Z</time>
      </trkpt>
      <trkpt lat="43.28826" lon="0.08347">
        <ele>269</ele>
        <time>2020-05-16T13:50:26Z</time>
      </trkpt>
      <trkpt lat="43.28828" lon="0.08366">
        <ele>269</ele>
        <time>2020-05-16T13:50:38Z</time>
      </trkpt>
      <trkpt lat="43.28828" lon="0.08376">
        <ele>269</ele>
        <time>2020-05-16T13:50:43Z</time>
      </trkpt>
      <trkpt lat="43.28826" lon="0.08382">
        <ele>269</ele>
        <time>2020-05-16T13:50:48Z</time>
      </trkpt>
      <trkpt lat="43.28825" lon="0.08391">
        <ele>269</ele>
        <time>2020-05-16T13:50:53Z</time>
      </trkpt>
      <trkpt lat="43.28823" lon="0.08398">
        <ele>269</ele>
        <time>2020-05-16T13:50:58Z</time>
      </trkpt>
      <trkpt lat="43.2882" lon="0.08439">
        <ele>269</ele>
        <time>2020-05-16T13:51:19Z</time>
      </trkpt>
      <trkpt lat="43.28821" lon="0.08447">
        <ele>269</ele>
        <time>2020-05-16T13:51:24Z</time>
      </trkpt>
      <trkpt lat="43.28819" lon="0.08462">
        <ele>269</ele>
        <time>2020-05-16T13:51:33Z</time>
      </trkpt>
      <trkpt lat="43.28814" lon="0.08479">
        <ele>269</ele>
        <time>2020-05-16T13:51:44Z</time>
      </trkpt>
      <trkpt lat="43.28811" lon="0.08495">
        <ele>269</ele>
        <time>2020-05-16T13:51:53Z</time>
      </trkpt>
      <trkpt lat="43.28809" lon="0.08504">
        <ele>269</ele>
        <time>2020-05-16T13:51:58Z</time>
      </trkpt>
      <trkpt lat="43.28808" lon="0.08511">
        <ele>269</ele>
        <time>2020-05-16T13:52:03Z</time>
      </trkpt>
      <trkpt lat="43.28788" lon="0.08566">
        <ele>269</ele>
        <time>2020-05-16T13:52:35Z</time>
      </trkpt>
      <trkpt lat="43.28784" lon="0.08587">
        <ele>270</ele>
        <time>2020-05-16T13:52:47Z</time>
      </trkpt>
      <trkpt lat="43.28782" lon="0.08592">
        <ele>270</ele>
        <time>2020-05-16T13:52:51Z</time>
      </trkpt>
      <trkpt lat="43.28779" lon="0.08597">
        <ele>271</ele>
        <time>2020-05-16T13:53:13Z</time>
      </trkpt>
      <trkpt lat="43.28779" lon="0.08606">
        <ele>271</ele>
        <time>2020-05-16T13:53:22Z</time>
      </trkpt>
      <trkpt lat="43.28757" lon="0.0863">
        <ele>271</ele>
        <time>2020-05-16T13:53:42Z</time>
      </trkpt>
      <trkpt lat="43.28755" lon="0.08633">
        <ele>271</ele>
        <time>2020-05-16T13:53:45Z</time>
      </trkpt>
      <trkpt lat="43.28725" lon="0.08655">
        <ele>272</ele>
        <time>2020-05-16T13:54:11Z</time>
      </trkpt>
      <trkpt lat="43.28714" lon="0.0866">
        <ele>272</ele>
        <time>2020-05-16T13:54:20Z</time>
      </trkpt>
      <trkpt lat="43.28696" lon="0.08675">
        <ele>272</ele>
        <time>2020-05-16T13:54:36Z</time>
      </trkpt>
      <trkpt lat="43.28692" lon="0.08675">
        <ele>272</ele>
        <time>2020-05-16T13:54:39Z</time>
      </trkpt>
      <trkpt lat="43.28689" lon="0.08678">
        <ele>272</ele>
        <time>2020-05-16T13:54:42Z</time>
      </trkpt>
      <trkpt lat="43.28685" lon="0.08678">
        <ele>272</ele>
        <time>2020-05-16T13:54:45Z</time>
      </trkpt>
      <trkpt lat="43.28674" lon="0.08681">
        <ele>272</ele>
        <time>2020-05-16T13:54:54Z</time>
      </trkpt>
      <trkpt lat="43.2867" lon="0.08684">
        <ele>272</ele>
        <time>2020-05-16T13:54:57Z</time>
      </trkpt>
      <trkpt lat="43.28665" lon="0.08685">
        <ele>272</ele>
        <time>2020-05-16T13:55:00Z</time>
      </trkpt>
      <trkpt lat="43.2866" lon="0.08689">
        <ele>272</ele>
        <time>2020-05-16T13:55:05Z</time>
      </trkpt>
      <trkpt lat="43.28654" lon="0.08699">
        <ele>273</ele>
        <time>2020-05-16T13:55:12Z</time>
      </trkpt>
      <trkpt lat="43.2865" lon="0.087">
        <ele>273</ele>
        <time>2020-05-16T13:55:15Z</time>
      </trkpt>
      <trkpt lat="43.28645" lon="0.08706">
        <ele>273</ele>
        <time>2020-05-16T13:55:21Z</time>
      </trkpt>
      <trkpt lat="43.28639" lon="0.08706">
        <ele>273</ele>
        <time>2020-05-16T13:55:25Z</time>
      </trkpt>
      <trkpt lat="43.28633" lon="0.08703">
        <ele>273</ele>
        <time>2020-05-16T13:55:29Z</time>
      </trkpt>
      <trkpt lat="43.28628" lon="0.08702">
        <ele>273</ele>
        <time>2020-05-16T13:55:34Z</time>
      </trkpt>
      <trkpt lat="43.28596" lon="0.08716">
        <ele>272</ele>
        <time>2020-05-16T13:56:00Z</time>
      </trkpt>
      <trkpt lat="43.28592" lon="0.08719">
        <ele>272</ele>
        <time>2020-05-16T13:56:03Z</time>
      </trkpt>
      <trkpt lat="43.28582" lon="0.08721">
        <ele>272</ele>
        <time>2020-05-16T13:56:11Z</time>
      </trkpt>
      <trkpt lat="43.28561" lon="0.08722">
        <ele>272</ele>
        <time>2020-05-16T13:56:27Z</time>
      </trkpt>
      <trkpt lat="43.28543" lon="0.08725">
        <ele>272</ele>
        <time>2020-05-16T13:56:43Z</time>
      </trkpt>
      <trkpt lat="43.28537" lon="0.08725">
        <ele>272</ele>
        <time>2020-05-16T13:56:48Z</time>
      </trkpt>
      <trkpt lat="43.28538" lon="0.08715">
        <ele>272</ele>
        <time>2020-05-16T13:58:15Z</time>
      </trkpt>
      <trkpt lat="43.28497" lon="0.08716">
        <ele>272</ele>
        <time>2020-05-16T13:58:45Z</time>
      </trkpt>
      <trkpt lat="43.28485" lon="0.08715">
        <ele>272</ele>
        <time>2020-05-16T13:58:55Z</time>
      </trkpt>
      <trkpt lat="43.28474" lon="0.0871">
        <ele>271</ele>
        <time>2020-05-16T13:59:04Z</time>
      </trkpt>
      <trkpt lat="43.28444" lon="0.08711">
        <ele>271</ele>
        <time>2020-05-16T13:59:29Z</time>
      </trkpt>
      <trkpt lat="43.28429" lon="0.08707">
        <ele>271</ele>
        <time>2020-05-16T14:00:18Z</time>
      </trkpt>
      <trkpt lat="43.28424" lon="0.08704">
        <ele>271</ele>
        <time>2020-05-16T14:00:23Z</time>
      </trkpt>
      <trkpt lat="43.28417" lon="0.08704">
        <ele>271</ele>
        <time>2020-05-16T14:00:28Z</time>
      </trkpt>
      <trkpt lat="43.28406" lon="0.08698">
        <ele>271</ele>
        <time>2020-05-16T14:00:36Z</time>
      </trkpt>
      <trkpt lat="43.2837" lon="0.08683">
        <ele>271</ele>
        <time>2020-05-16T14:01:09Z</time>
      </trkpt>
      <trkpt lat="43.28335" lon="0.08652">
        <ele>271</ele>
        <time>2020-05-16T14:01:43Z</time>
      </trkpt>
      <trkpt lat="43.28331" lon="0.08646">
        <ele>271</ele>
        <time>2020-05-16T14:01:48Z</time>
      </trkpt>
      <trkpt lat="43.28325" lon="0.08641">
        <ele>271</ele>
        <time>2020-05-16T14:01:53Z</time>
      </trkpt>
      <trkpt lat="43.28318" lon="0.08629">
        <ele>271</ele>
        <time>2020-05-16T14:02:01Z</time>
      </trkpt>
      <trkpt lat="43.28315" lon="0.08623">
        <ele>271</ele>
        <time>2020-05-16T14:02:05Z</time>
      </trkpt>
      <trkpt lat="43.2831" lon="0.08618">
        <ele>271</ele>
        <time>2020-05-16T14:02:10Z</time>
      </trkpt>
      <trkpt lat="43.28306" lon="0.0861">
        <ele>271</ele>
        <time>2020-05-16T14:02:15Z</time>
      </trkpt>
      <trkpt lat="43.28304" lon="0.08602">
        <ele>272</ele>
        <time>2020-05-16T14:02:20Z</time>
      </trkpt>
      <trkpt lat="43.28298" lon="0.08587">
        <ele>272</ele>
        <time>2020-05-16T14:02:30Z</time>
      </trkpt>
      <trkpt lat="43.28287" lon="0.08548">
        <ele>272</ele>
        <time>2020-05-16T14:02:55Z</time>
      </trkpt>
      <trkpt lat="43.28282" lon="0.08543">
        <ele>272</ele>
        <time>2020-05-16T14:03:00Z</time>
      </trkpt>
      <trkpt lat="43.28276" lon="0.08542">
        <ele>272</ele>
        <time>2020-05-16T14:03:06Z</time>
      </trkpt>
      <trkpt lat="43.28234" lon="0.08544">
        <ele>272</ele>
        <time>2020-05-16T14:03:42Z</time>
      </trkpt>
      <trkpt lat="43.28216" lon="0.08546">
        <ele>272</ele>
        <time>2020-05-16T14:03:58Z</time>
      </trkpt>
      <trkpt lat="43.28211" lon="0.08548">
        <ele>272</ele>
        <time>2020-05-16T14:04:03Z</time>
      </trkpt>
      <trkpt lat="43.28173" lon="0.0855">
        <ele>273</ele>
        <time>2020-05-16T14:04:35Z</time>
      </trkpt>
      <trkpt lat="43.28168" lon="0.0855">
        <ele>273</ele>
        <time>2020-05-16T14:04:39Z</time>
      </trkpt>
      <trkpt lat="43.28162" lon="0.08547">
        <ele>273</ele>
        <time>2020-05-16T14:04:43Z</time>
      </trkpt>
      <trkpt lat="43.28156" lon="0.08546">
        <ele>273</ele>
        <time>2020-05-16T14:04:48Z</time>
      </trkpt>
      <trkpt lat="43.28144" lon="0.08545">
        <ele>273</ele>
        <time>2020-05-16T14:04:57Z</time>
      </trkpt>
      <trkpt lat="43.2812" lon="0.08534">
        <ele>274</ele>
        <time>2020-05-16T14:05:16Z</time>
      </trkpt>
      <trkpt lat="43.28108" lon="0.08532">
        <ele>274</ele>
        <time>2020-05-16T14:05:27Z</time>
      </trkpt>
      <trkpt lat="43.28085" lon="0.0852">
        <ele>274</ele>
        <time>2020-05-16T14:05:48Z</time>
      </trkpt>
      <trkpt lat="43.28079" lon="0.08519">
        <ele>274</ele>
        <time>2020-05-16T14:05:52Z</time>
      </trkpt>
      <trkpt lat="43.28055" lon="0.0851">
        <ele>274</ele>
        <time>2020-05-16T14:06:13Z</time>
      </trkpt>
      <trkpt lat="43.28049" lon="0.08511">
        <ele>274</ele>
        <time>2020-05-16T14:06:18Z</time>
      </trkpt>
      <trkpt lat="43.28038" lon="0.08503">
        <ele>273</ele>
        <time>2020-05-16T14:06:28Z</time>
      </trkpt>
      <trkpt lat="43.28029" lon="0.08503">
        <ele>273</ele>
        <time>2020-05-16T14:06:34Z</time>
      </trkpt>
      <trkpt lat="43.28007" lon="0.08488">
        <ele>273</ele>
        <time>2020-05-16T14:06:56Z</time>
      </trkpt>
      <trkpt lat="43.27995" lon="0.08484">
        <ele>274</ele>
        <time>2020-05-16T14:07:06Z</time>
      </trkpt>
      <trkpt lat="43.27961" lon="0.08468">
        <ele>275</ele>
        <time>2020-05-16T14:07:37Z</time>
      </trkpt>
      <trkpt lat="43.27956" lon="0.08467">
        <ele>275</ele>
        <time>2020-05-16T14:07:41Z</time>
      </trkpt>
      <trkpt lat="43.27945" lon="0.0846">
        <ele>275</ele>
        <time>2020-05-16T14:07:51Z</time>
      </trkpt>
      <trkpt lat="43.27937" lon="0.0846">
        <ele>275</ele>
        <time>2020-05-16T14:07:58Z</time>
      </trkpt>
      <trkpt lat="43.27916" lon="0.08463">
        <ele>275</ele>
        <time>2020-05-16T14:08:19Z</time>
      </trkpt>
      <trkpt lat="43.2791" lon="0.08467">
        <ele>275</ele>
        <time>2020-05-16T14:08:25Z</time>
      </trkpt>
      <trkpt lat="43.27893" lon="0.08475">
        <ele>276</ele>
        <time>2020-05-16T14:08:40Z</time>
      </trkpt>
      <trkpt lat="43.27859" lon="0.08478">
        <ele>276</ele>
        <time>2020-05-16T14:09:08Z</time>
      </trkpt>
      <trkpt lat="43.27853" lon="0.0848">
        <ele>277</ele>
        <time>2020-05-16T14:09:12Z</time>
      </trkpt>
      <trkpt lat="43.2783" lon="0.08485">
        <ele>277</ele>
        <time>2020-05-16T14:09:32Z</time>
      </trkpt>
      <trkpt lat="43.27825" lon="0.08484">
        <ele>277</ele>
        <time>2020-05-16T14:09:37Z</time>
      </trkpt>
      <trkpt lat="43.27785" lon="0.08485">
        <ele>277</ele>
        <time>2020-05-16T14:10:06Z</time>
      </trkpt>
      <trkpt lat="43.27779" lon="0.08482">
        <ele>277</ele>
        <time>2020-05-16T14:10:10Z</time>
      </trkpt>
      <trkpt lat="43.27773" lon="0.08483">
        <ele>277</ele>
        <time>2020-05-16T14:10:14Z</time>
      </trkpt>
      <trkpt lat="43.27734" lon="0.08496">
        <ele>278</ele>
        <time>2020-05-16T14:10:48Z</time>
      </trkpt>
      <trkpt lat="43.27728" lon="0.08495">
        <ele>278</ele>
        <time>2020-05-16T14:10:53Z</time>
      </trkpt>
      <trkpt lat="43.27713" lon="0.08484">
        <ele>278</ele>
        <time>2020-05-16T14:11:07Z</time>
      </trkpt>
      <trkpt lat="43.27705" lon="0.08482">
        <ele>279</ele>
        <time>2020-05-16T14:11:14Z</time>
      </trkpt>
      <trkpt lat="43.27687" lon="0.08476">
        <ele>279</ele>
        <time>2020-05-16T14:11:28Z</time>
      </trkpt>
      <trkpt lat="43.27682" lon="0.08471">
        <ele>279</ele>
        <time>2020-05-16T14:11:33Z</time>
      </trkpt>
      <trkpt lat="43.27666" lon="0.08467">
        <ele>279</ele>
        <time>2020-05-16T14:11:46Z</time>
      </trkpt>
      <trkpt lat="43.27657" lon="0.08458">
        <ele>278</ele>
        <time>2020-05-16T14:11:55Z</time>
      </trkpt>
      <trkpt lat="43.27652" lon="0.08444">
        <ele>278</ele>
        <time>2020-05-16T14:12:03Z</time>
      </trkpt>
      <trkpt lat="43.27651" lon="0.08418">
        <ele>278</ele>
        <time>2020-05-16T14:12:19Z</time>
      </trkpt>
      <trkpt lat="43.2765" lon="0.08411">
        <ele>278</ele>
        <time>2020-05-16T14:12:23Z</time>
      </trkpt>
      <trkpt lat="43.27644" lon="0.08408">
        <ele>277</ele>
        <time>2020-05-16T14:12:29Z</time>
      </trkpt>
      <trkpt lat="43.27638" lon="0.0841">
        <ele>277</ele>
        <time>2020-05-16T14:12:34Z</time>
      </trkpt>
      <trkpt lat="43.27633" lon="0.08412">
        <ele>278</ele>
        <time>2020-05-16T14:12:38Z</time>
      </trkpt>
      <trkpt lat="43.27596" lon="0.08422">
        <ele>279</ele>
        <time>2020-05-16T14:13:12Z</time>
      </trkpt>
      <trkpt lat="43.27577" lon="0.08414">
        <ele>279</ele>
        <time>2020-05-16T14:13:26Z</time>
      </trkpt>
      <trkpt lat="43.27568" lon="0.08406">
        <ele>279</ele>
        <time>2020-05-16T14:13:34Z</time>
      </trkpt>
      <trkpt lat="43.27563" lon="0.08406">
        <ele>280</ele>
        <time>2020-05-16T14:13:46Z</time>
      </trkpt>
      <trkpt lat="43.27551" lon="0.08402">
        <ele>279</ele>
        <time>2020-05-16T14:14:05Z</time>
      </trkpt>
      <trkpt lat="43.27544" lon="0.08402">
        <ele>279</ele>
        <time>2020-05-16T14:14:13Z</time>
      </trkpt>
      <trkpt lat="43.27526" lon="0.08397">
        <ele>279</ele>
        <time>2020-05-16T14:14:28Z</time>
      </trkpt>
      <trkpt lat="43.27513" lon="0.08397">
        <ele>280</ele>
        <time>2020-05-16T14:14:38Z</time>
      </trkpt>
      <trkpt lat="43.27501" lon="0.08393">
        <ele>280</ele>
        <time>2020-05-16T14:14:47Z</time>
      </trkpt>
      <trkpt lat="43.27485" lon="0.08386">
        <ele>280</ele>
        <time>2020-05-16T14:15:01Z</time>
      </trkpt>
      <trkpt lat="43.27478" lon="0.08388">
        <ele>280</ele>
        <time>2020-05-16T14:15:05Z</time>
      </trkpt>
      <trkpt lat="43.27446" lon="0.08385">
        <ele>280</ele>
        <time>2020-05-16T14:15:32Z</time>
      </trkpt>
      <trkpt lat="43.2744" lon="0.08382">
        <ele>280</ele>
        <time>2020-05-16T14:15:38Z</time>
      </trkpt>
      <trkpt lat="43.27427" lon="0.08383">
        <ele>280</ele>
        <time>2020-05-16T14:15:48Z</time>
      </trkpt>
      <trkpt lat="43.27421" lon="0.08381">
        <ele>280</ele>
        <time>2020-05-16T14:15:53Z</time>
      </trkpt>
      <trkpt lat="43.27408" lon="0.08387">
        <ele>280</ele>
        <time>2020-05-16T14:16:07Z</time>
      </trkpt>
      <trkpt lat="43.27395" lon="0.08389">
        <ele>280</ele>
        <time>2020-05-16T14:16:18Z</time>
      </trkpt>
      <trkpt lat="43.27382" lon="0.08389">
        <ele>280</ele>
        <time>2020-05-16T14:16:26Z</time>
      </trkpt>
      <trkpt lat="43.27375" lon="0.08392">
        <ele>280</ele>
        <time>2020-05-16T14:16:33Z</time>
      </trkpt>
      <trkpt lat="43.27349" lon="0.08397">
        <ele>281</ele>
        <time>2020-05-16T14:16:54Z</time>
      </trkpt>
      <trkpt lat="43.27336" lon="0.08396">
        <ele>281</ele>
        <time>2020-05-16T14:17:03Z</time>
      </trkpt>
      <trkpt lat="43.2733" lon="0.08398">
        <ele>281</ele>
        <time>2020-05-16T14:17:08Z</time>
      </trkpt>
      <trkpt lat="43.27325" lon="0.08397">
        <ele>281</ele>
        <time>2020-05-16T14:17:13Z</time>
      </trkpt>
      <trkpt lat="43.27313" lon="0.08401">
        <ele>281</ele>
        <time>2020-05-16T14:17:22Z</time>
      </trkpt>
      <trkpt lat="43.27296" lon="0.08398">
        <ele>282</ele>
        <time>2020-05-16T14:17:34Z</time>
      </trkpt>
      <trkpt lat="43.27272" lon="0.08398">
        <ele>282</ele>
        <time>2020-05-16T14:17:55Z</time>
      </trkpt>
      <trkpt lat="43.27232" lon="0.08381">
        <ele>282</ele>
        <time>2020-05-16T14:18:27Z</time>
      </trkpt>
      <trkpt lat="43.27226" lon="0.08378">
        <ele>282</ele>
        <time>2020-05-16T14:18:31Z</time>
      </trkpt>
      <trkpt lat="43.27202" lon="0.08367">
        <ele>282</ele>
        <time>2020-05-16T14:18:51Z</time>
      </trkpt>
      <trkpt lat="43.27184" lon="0.08357">
        <ele>282</ele>
        <time>2020-05-16T14:19:03Z</time>
      </trkpt>
      <trkpt lat="43.27166" lon="0.08352">
        <ele>282</ele>
        <time>2020-05-16T14:19:17Z</time>
      </trkpt>
      <trkpt lat="43.27147" lon="0.08356">
        <ele>282</ele>
        <time>2020-05-16T14:19:33Z</time>
      </trkpt>
      <trkpt lat="43.27123" lon="0.08367">
        <ele>282</ele>
        <time>2020-05-16T14:19:53Z</time>
      </trkpt>
      <trkpt lat="43.2711" lon="0.08379">
        <ele>282</ele>
        <time>2020-05-16T14:20:06Z</time>
      </trkpt>
      <trkpt lat="43.27103" lon="0.0838">
        <ele>282</ele>
        <time>2020-05-16T14:20:11Z</time>
      </trkpt>
      <trkpt lat="43.27099" lon="0.08385">
        <ele>282</ele>
        <time>2020-05-16T14:20:15Z</time>
      </trkpt>
      <trkpt lat="43.27093" lon="0.08388">
        <ele>282</ele>
        <time>2020-05-16T14:20:20Z</time>
      </trkpt>
      <trkpt lat="43.27083" lon="0.08396">
        <ele>281</ele>
        <time>2020-05-16T14:20:30Z</time>
      </trkpt>
      <trkpt lat="43.27068" lon="0.08402">
        <ele>281</ele>
        <time>2020-05-16T14:20:43Z</time>
      </trkpt>
      <trkpt lat="43.27049" lon="0.084">
        <ele>281</ele>
        <time>2020-05-16T14:20:59Z</time>
      </trkpt>
      <trkpt lat="43.27037" lon="0.08396">
        <ele>280</ele>
        <time>2020-05-16T14:21:09Z</time>
      </trkpt>
      <trkpt lat="43.26996" lon="0.08375">
        <ele>281</ele>
        <time>2020-05-16T14:21:42Z</time>
      </trkpt>
      <trkpt lat="43.2699" lon="0.08376">
        <ele>281</ele>
        <time>2020-05-16T14:21:47Z</time>
      </trkpt>
      <trkpt lat="43.2695" lon="0.08384">
        <ele>281</ele>
        <time>2020-05-16T14:22:18Z</time>
      </trkpt>
      <trkpt lat="43.26909" lon="0.08398">
        <ele>281</ele>
        <time>2020-05-16T14:22:54Z</time>
      </trkpt>
      <trkpt lat="43.26903" lon="0.08399">
        <ele>281</ele>
        <time>2020-05-16T14:22:59Z</time>
      </trkpt>
      <trkpt lat="43.26892" lon="0.08408">
        <ele>281</ele>
        <time>2020-05-16T14:23:08Z</time>
      </trkpt>
      <trkpt lat="43.26852" lon="0.08424">
        <ele>282</ele>
        <time>2020-05-16T14:23:41Z</time>
      </trkpt>
      <trkpt lat="43.26845" lon="0.0843">
        <ele>282</ele>
        <time>2020-05-16T14:23:47Z</time>
      </trkpt>
      <trkpt lat="43.26815" lon="0.0844">
        <ele>283</ele>
        <time>2020-05-16T14:24:14Z</time>
      </trkpt>
      <trkpt lat="43.26804" lon="0.08447">
        <ele>283</ele>
        <time>2020-05-16T14:24:23Z</time>
      </trkpt>
      <trkpt lat="43.26786" lon="0.08453">
        <ele>283</ele>
        <time>2020-05-16T14:24:39Z</time>
      </trkpt>
      <trkpt lat="43.26763" lon="0.08459">
        <ele>283</ele>
        <time>2020-05-16T14:24:58Z</time>
      </trkpt>
      <trkpt lat="43.26757" lon="0.08461">
        <ele>283</ele>
        <time>2020-05-16T14:25:03Z</time>
      </trkpt>
      <trkpt lat="43.26752" lon="0.08457">
        <ele>283</ele>
        <time>2020-05-16T14:25:07Z</time>
      </trkpt>
      <trkpt lat="43.26715" lon="0.0845">
        <ele>284</ele>
        <time>2020-05-16T14:25:33Z</time>
      </trkpt>
      <trkpt lat="43.26677" lon="0.08447">
        <ele>284</ele>
        <time>2020-05-16T14:26:04Z</time>
      </trkpt>
      <trkpt lat="43.26659" lon="0.08445">
        <ele>284</ele>
        <time>2020-05-16T14:26:18Z</time>
      </trkpt>
      <trkpt lat="43.26631" lon="0.0843">
        <ele>284</ele>
        <time>2020-05-16T14:26:39Z</time>
      </trkpt>
      <trkpt lat="43.26621" lon="0.08421">
        <ele>284</ele>
        <time>2020-05-16T14:26:48Z</time>
      </trkpt>
      <trkpt lat="43.26599" lon="0.08409">
        <ele>285</ele>
        <time>2020-05-16T14:27:07Z</time>
      </trkpt>
      <trkpt lat="43.2659" lon="0.08402">
        <ele>285</ele>
        <time>2020-05-16T14:27:16Z</time>
      </trkpt>
      <trkpt lat="43.26574" lon="0.084">
        <ele>285</ele>
        <time>2020-05-16T14:27:29Z</time>
      </trkpt>
      <trkpt lat="43.26544" lon="0.08383">
        <ele>286</ele>
        <time>2020-05-16T14:27:56Z</time>
      </trkpt>
      <trkpt lat="43.26539" lon="0.08378">
        <ele>286</ele>
        <time>2020-05-16T14:28:00Z</time>
      </trkpt>
      <trkpt lat="43.26535" lon="0.08375">
        <ele>286</ele>
        <time>2020-05-16T14:28:04Z</time>
      </trkpt>
      <trkpt lat="43.2653" lon="0.08368">
        <ele>286</ele>
        <time>2020-05-16T14:28:09Z</time>
      </trkpt>
      <trkpt lat="43.26512" lon="0.08358">
        <ele>286</ele>
        <time>2020-05-16T14:28:23Z</time>
      </trkpt>
      <trkpt lat="43.26482" lon="0.08318">
        <ele>286</ele>
        <time>2020-05-16T14:28:54Z</time>
      </trkpt>
      <trkpt lat="43.2647" lon="0.08316">
        <ele>286</ele>
        <time>2020-05-16T14:29:03Z</time>
      </trkpt>
      <trkpt lat="43.26463" lon="0.08318">
        <ele>286</ele>
        <time>2020-05-16T14:29:08Z</time>
      </trkpt>
      <trkpt lat="43.26457" lon="0.08318">
        <ele>286</ele>
        <time>2020-05-16T14:29:13Z</time>
      </trkpt>
      <trkpt lat="43.2645" lon="0.08315">
        <ele>286</ele>
        <time>2020-05-16T14:29:20Z</time>
      </trkpt>
      <trkpt lat="43.26433" lon="0.08318">
        <ele>286</ele>
        <time>2020-05-16T14:29:34Z</time>
      </trkpt>
      <trkpt lat="43.26427" lon="0.0832">
        <ele>287</ele>
        <time>2020-05-16T14:29:39Z</time>
      </trkpt>
      <trkpt lat="43.26417" lon="0.08327">
        <ele>287</ele>
        <time>2020-05-16T14:29:49Z</time>
      </trkpt>
      <trkpt lat="43.2641" lon="0.08327">
        <ele>287</ele>
        <time>2020-05-16T14:29:55Z</time>
      </trkpt>
      <trkpt lat="43.26404" lon="0.08331">
        <ele>287</ele>
        <time>2020-05-16T14:30:00Z</time>
      </trkpt>
      <trkpt lat="43.2639" lon="0.0833">
        <ele>287</ele>
        <time>2020-05-16T14:30:12Z</time>
      </trkpt>
      <trkpt lat="43.26332" lon="0.08335">
        <ele>287</ele>
        <time>2020-05-16T14:30:49Z</time>
      </trkpt>
      <trkpt lat="43.26325" lon="0.08338">
        <ele>287</ele>
        <time>2020-05-16T14:30:55Z</time>
      </trkpt>
      <trkpt lat="43.26281" lon="0.0834">
        <ele>288</ele>
        <time>2020-05-16T14:31:30Z</time>
      </trkpt>
      <trkpt lat="43.2626" lon="0.08344">
        <ele>288</ele>
        <time>2020-05-16T14:31:49Z</time>
      </trkpt>
      <trkpt lat="43.26246" lon="0.08351">
        <ele>288</ele>
        <time>2020-05-16T14:31:59Z</time>
      </trkpt>
      <trkpt lat="43.26206" lon="0.08354">
        <ele>289</ele>
        <time>2020-05-16T14:32:29Z</time>
      </trkpt>
      <trkpt lat="43.26184" lon="0.08358">
        <ele>289</ele>
        <time>2020-05-16T14:32:52Z</time>
      </trkpt>
      <trkpt lat="43.26174" lon="0.08364">
        <ele>289</ele>
        <time>2020-05-16T14:33:01Z</time>
      </trkpt>
      <trkpt lat="43.26166" lon="0.08367">
        <ele>289</ele>
        <time>2020-05-16T14:33:07Z</time>
      </trkpt>
      <trkpt lat="43.2616" lon="0.08365">
        <ele>289</ele>
        <time>2020-05-16T14:33:11Z</time>
      </trkpt>
      <trkpt lat="43.26146" lon="0.08369">
        <ele>289</ele>
        <time>2020-05-16T14:33:22Z</time>
      </trkpt>
      <trkpt lat="43.26116" lon="0.08366">
        <ele>290</ele>
        <time>2020-05-16T14:33:44Z</time>
      </trkpt>
      <trkpt lat="43.26057" lon="0.08375">
        <ele>290</ele>
        <time>2020-05-16T14:34:22Z</time>
      </trkpt>
      <trkpt lat="43.26027" lon="0.08369">
        <ele>291</ele>
        <time>2020-05-16T14:34:45Z</time>
      </trkpt>
      <trkpt lat="43.25984" lon="0.08378">
        <ele>291</ele>
        <time>2020-05-16T14:35:18Z</time>
      </trkpt>
      <trkpt lat="43.25979" lon="0.08378">
        <ele>291</ele>
        <time>2020-05-16T14:35:22Z</time>
      </trkpt>
      <trkpt lat="43.25973" lon="0.08375">
        <ele>291</ele>
        <time>2020-05-16T14:35:27Z</time>
      </trkpt>
      <trkpt lat="43.25961" lon="0.08375">
        <ele>291</ele>
        <time>2020-05-16T14:35:38Z</time>
      </trkpt>
      <trkpt lat="43.2595" lon="0.08374">
        <ele>291</ele>
        <time>2020-05-16T14:35:49Z</time>
      </trkpt>
      <trkpt lat="43.25933" lon="0.08369">
        <ele>291</ele>
        <time>2020-05-16T14:36:05Z</time>
      </trkpt>
      <trkpt lat="43.25927" lon="0.08368">
        <ele>291</ele>
        <time>2020-05-16T14:36:09Z</time>
      </trkpt>
      <trkpt lat="43.25921" lon="0.08371">
        <ele>291</ele>
        <time>2020-05-16T14:36:13Z</time>
      </trkpt>
      <trkpt lat="43.25903" lon="0.08366">
        <ele>292</ele>
        <time>2020-05-16T14:36:27Z</time>
      </trkpt>
      <trkpt lat="43.25885" lon="0.08362">
        <ele>292</ele>
        <time>2020-05-16T14:36:42Z</time>
      </trkpt>
      <trkpt lat="43.2586" lon="0.08359">
        <ele>292</ele>
        <time>2020-05-16T14:37:02Z</time>
      </trkpt>
      <trkpt lat="43.25847" lon="0.08361">
        <ele>292</ele>
        <time>2020-05-16T14:37:12Z</time>
      </trkpt>
      <trkpt lat="43.25837" lon="0.08369">
        <ele>292</ele>
        <time>2020-05-16T14:37:22Z</time>
      </trkpt>
      <trkpt lat="43.25821" lon="0.08366">
        <ele>292</ele>
        <time>2020-05-16T14:37:37Z</time>
      </trkpt>
      <trkpt lat="43.25807" lon="0.08371">
        <ele>292</ele>
        <time>2020-05-16T14:37:48Z</time>
      </trkpt>
      <trkpt lat="43.25767" lon="0.08363">
        <ele>292</ele>
        <time>2020-05-16T14:38:16Z</time>
      </trkpt>
      <trkpt lat="43.25725" lon="0.08367">
        <ele>293</ele>
        <time>2020-05-16T14:38:50Z</time>
      </trkpt>
      <trkpt lat="43.25719" lon="0.08367">
        <ele>293</ele>
        <time>2020-05-16T14:38:54Z</time>
      </trkpt>
      <trkpt lat="43.25708" lon="0.08372">
        <ele>293</ele>
        <time>2020-05-16T14:39:04Z</time>
      </trkpt>
      <trkpt lat="43.25695" lon="0.08373">
        <ele>293</ele>
        <time>2020-05-16T14:39:13Z</time>
      </trkpt>
      <trkpt lat="43.25684" lon="0.08378">
        <ele>293</ele>
        <time>2020-05-16T14:39:21Z</time>
      </trkpt>
      <trkpt lat="43.25678" lon="0.08377">
        <ele>293</ele>
        <time>2020-05-16T14:39:25Z</time>
      </trkpt>
      <trkpt lat="43.25671" lon="0.0838">
        <ele>292</ele>
        <time>2020-05-16T14:39:30Z</time>
      </trkpt>
      <trkpt lat="43.25653" lon="0.08371">
        <ele>293</ele>
        <time>2020-05-16T14:39:45Z</time>
      </trkpt>
      <trkpt lat="43.25646" lon="0.08372">
        <ele>293</ele>
        <time>2020-05-16T14:39:50Z</time>
      </trkpt>
      <trkpt lat="43.25641" lon="0.08373">
        <ele>293</ele>
        <time>2020-05-16T14:39:54Z</time>
      </trkpt>
      <trkpt lat="43.25619" lon="0.08385">
        <ele>293</ele>
        <time>2020-05-16T14:40:24Z</time>
      </trkpt>
      <trkpt lat="43.25614" lon="0.08385">
        <ele>293</ele>
        <time>2020-05-16T14:40:28Z</time>
      </trkpt>
      <trkpt lat="43.25608" lon="0.08388">
        <ele>294</ele>
        <time>2020-05-16T14:40:33Z</time>
      </trkpt>
      <trkpt lat="43.25601" lon="0.08386">
        <ele>294</ele>
        <time>2020-05-16T14:40:39Z</time>
      </trkpt>
      <trkpt lat="43.25595" lon="0.08387">
        <ele>294</ele>
        <time>2020-05-16T14:41:29Z</time>
      </trkpt>
      <trkpt lat="43.25584" lon="0.0839">
        <ele>294</ele>
        <time>2020-05-16T14:41:42Z</time>
      </trkpt>
      <trkpt lat="43.25577" lon="0.08394">
        <ele>294</ele>
        <time>2020-05-16T14:41:48Z</time>
      </trkpt>
      <trkpt lat="43.25553" lon="0.08388">
        <ele>293</ele>
        <time>2020-05-16T14:42:06Z</time>
      </trkpt>
      <trkpt lat="43.25545" lon="0.08389">
        <ele>293</ele>
        <time>2020-05-16T14:42:11Z</time>
      </trkpt>
      <trkpt lat="43.25539" lon="0.0839">
        <ele>293</ele>
        <time>2020-05-16T14:42:15Z</time>
      </trkpt>
      <trkpt lat="43.25533" lon="0.0839">
        <ele>293</ele>
        <time>2020-05-16T14:42:20Z</time>
      </trkpt>
      <trkpt lat="43.2551" lon="0.08397">
        <ele>294</ele>
        <time>2020-05-16T14:42:38Z</time>
      </trkpt>
      <trkpt lat="43.25499" lon="0.08399">
        <ele>294</ele>
        <time>2020-05-16T14:42:48Z</time>
      </trkpt>
      <trkpt lat="43.25465" lon="0.08416">
        <ele>294</ele>
        <time>2020-05-16T14:43:19Z</time>
      </trkpt>
      <trkpt lat="43.25445" lon="0.08413">
        <ele>293</ele>
        <time>2020-05-16T14:43:41Z</time>
      </trkpt>
      <trkpt lat="43.25427" lon="0.08416">
        <ele>293</ele>
        <time>2020-05-16T14:44:05Z</time>
      </trkpt>
      <trkpt lat="43.25413" lon="0.08427">
        <ele>293</ele>
        <time>2020-05-16T14:44:13Z</time>
      </trkpt>
      <trkpt lat="43.25405" lon="0.08429">
        <ele>293</ele>
        <time>2020-05-16T14:44:20Z</time>
      </trkpt>
      <trkpt lat="43.25386" lon="0.08428">
        <ele>294</ele>
        <time>2020-05-16T14:44:30Z</time>
      </trkpt>
      <trkpt lat="43.2537" lon="0.08422">
        <ele>294</ele>
        <time>2020-05-16T14:44:36Z</time>
      </trkpt>
      <trkpt lat="43.25343" lon="0.08422">
        <ele>295</ele>
        <time>2020-05-16T14:44:49Z</time>
      </trkpt>
      <trkpt lat="43.25335" lon="0.08418">
        <ele>295</ele>
        <time>2020-05-16T14:44:55Z</time>
      </trkpt>
      <trkpt lat="43.25309" lon="0.08413">
        <ele>294</ele>
        <time>2020-05-16T14:45:18Z</time>
      </trkpt>
      <trkpt lat="43.25301" lon="0.08416">
        <ele>295</ele>
        <time>2020-05-16T14:45:25Z</time>
      </trkpt>
      <trkpt lat="43.25294" lon="0.08414">
        <ele>295</ele>
        <time>2020-05-16T14:45:30Z</time>
      </trkpt>
      <trkpt lat="43.25287" lon="0.08417">
        <ele>295</ele>
        <time>2020-05-16T14:45:37Z</time>
      </trkpt>
      <trkpt lat="43.25271" lon="0.08418">
        <ele>295</ele>
        <time>2020-05-16T14:45:49Z</time>
      </trkpt>
      <trkpt lat="43.25263" lon="0.08417">
        <ele>295</ele>
        <time>2020-05-16T14:46:02Z</time>
      </trkpt>
      <trkpt lat="43.25243" lon="0.08381">
        <ele>297</ele>
        <time>2020-05-16T14:46:29Z</time>
      </trkpt>
      <trkpt lat="43.25226" lon="0.08373">
        <ele>297</ele>
        <time>2020-05-16T14:46:41Z</time>
      </trkpt>
      <trkpt lat="43.2522" lon="0.08373">
        <ele>297</ele>
        <time>2020-05-16T14:46:45Z</time>
      </trkpt>
      <trkpt lat="43.25214" lon="0.08373">
        <ele>297</ele>
        <time>2020-05-16T14:46:49Z</time>
      </trkpt>
      <trkpt lat="43.25183" lon="0.0837">
        <ele>298</ele>
        <time>2020-05-16T14:47:12Z</time>
      </trkpt>
      <trkpt lat="43.25173" lon="0.08361">
        <ele>298</ele>
        <time>2020-05-16T14:47:21Z</time>
      </trkpt>
      <trkpt lat="43.25168" lon="0.08354">
        <ele>298</ele>
        <time>2020-05-16T14:47:26Z</time>
      </trkpt>
      <trkpt lat="43.25154" lon="0.08346">
        <ele>298</ele>
        <time>2020-05-16T14:47:38Z</time>
      </trkpt>
      <trkpt lat="43.25148" lon="0.08346">
        <ele>297</ele>
        <time>2020-05-16T14:47:42Z</time>
      </trkpt>
      <trkpt lat="43.25141" lon="0.08349">
        <ele>297</ele>
        <time>2020-05-16T14:47:46Z</time>
      </trkpt>
      <trkpt lat="43.25122" lon="0.08351">
        <ele>297</ele>
        <time>2020-05-16T14:48:03Z</time>
      </trkpt>
      <trkpt lat="43.25109" lon="0.08347">
        <ele>297</ele>
        <time>2020-05-16T14:48:15Z</time>
      </trkpt>
      <trkpt lat="43.25071" lon="0.08337">
        <ele>298</ele>
        <time>2020-05-16T14:48:47Z</time>
      </trkpt>
      <trkpt lat="43.25064" lon="0.08336">
        <ele>298</ele>
        <time>2020-05-16T14:48:51Z</time>
      </trkpt>
      <trkpt lat="43.25052" lon="0.08337">
        <ele>298</ele>
        <time>2020-05-16T14:49:01Z</time>
      </trkpt>
      <trkpt lat="43.2504" lon="0.08334">
        <ele>298</ele>
        <time>2020-05-16T14:49:12Z</time>
      </trkpt>
      <trkpt lat="43.25021" lon="0.08333">
        <ele>298</ele>
        <time>2020-05-16T14:49:25Z</time>
      </trkpt>
      <trkpt lat="43.25015" lon="0.08331">
        <ele>299</ele>
        <time>2020-05-16T14:49:29Z</time>
      </trkpt>
      <trkpt lat="43.2501" lon="0.08329">
        <ele>299</ele>
        <time>2020-05-16T14:49:39Z</time>
      </trkpt>
      <trkpt lat="43.24996" lon="0.08328">
        <ele>299</ele>
        <time>2020-05-16T14:49:56Z</time>
      </trkpt>
      <trkpt lat="43.24988" lon="0.08325">
        <ele>299</ele>
        <time>2020-05-16T14:50:03Z</time>
      </trkpt>
      <trkpt lat="43.24968" lon="0.08321">
        <ele>299</ele>
        <time>2020-05-16T14:50:19Z</time>
      </trkpt>
      <trkpt lat="43.24963" lon="0.08317">
        <ele>299</ele>
        <time>2020-05-16T14:50:25Z</time>
      </trkpt>
      <trkpt lat="43.24957" lon="0.08319">
        <ele>299</ele>
        <time>2020-05-16T14:50:33Z</time>
      </trkpt>
      <trkpt lat="43.24938" lon="0.08317">
        <ele>298</ele>
        <time>2020-05-16T14:50:48Z</time>
      </trkpt>
      <trkpt lat="43.24913" lon="0.08324">
        <ele>298</ele>
        <time>2020-05-16T14:51:08Z</time>
      </trkpt>
      <trkpt lat="43.24904" lon="0.08322">
        <ele>298</ele>
        <time>2020-05-16T14:51:13Z</time>
      </trkpt>
      <trkpt lat="43.24892" lon="0.08324">
        <ele>298</ele>
        <time>2020-05-16T14:51:21Z</time>
      </trkpt>
      <trkpt lat="43.2488" lon="0.08324">
        <ele>298</ele>
        <time>2020-05-16T14:51:31Z</time>
      </trkpt>
      <trkpt lat="43.24872" lon="0.08327">
        <ele>298</ele>
        <time>2020-05-16T14:51:39Z</time>
      </trkpt>
      <trkpt lat="43.24839" lon="0.08331">
        <ele>299</ele>
        <time>2020-05-16T14:52:11Z</time>
      </trkpt>
      <trkpt lat="43.248" lon="0.08344">
        <ele>299</ele>
        <time>2020-05-16T14:52:37Z</time>
      </trkpt>
      <trkpt lat="43.24794" lon="0.08344">
        <ele>300</ele>
        <time>2020-05-16T14:52:45Z</time>
      </trkpt>
      <trkpt lat="43.24777" lon="0.08353">
        <ele>300</ele>
        <time>2020-05-16T14:52:59Z</time>
      </trkpt>
      <trkpt lat="43.24762" lon="0.0835">
        <ele>300</ele>
        <time>2020-05-16T14:53:12Z</time>
      </trkpt>
      <trkpt lat="43.24741" lon="0.08357">
        <ele>300</ele>
        <time>2020-05-16T14:53:30Z</time>
      </trkpt>
      <trkpt lat="43.24726" lon="0.08354">
        <ele>300</ele>
        <time>2020-05-16T14:53:39Z</time>
      </trkpt>
      <trkpt lat="43.24711" lon="0.08356">
        <ele>300</ele>
        <time>2020-05-16T14:53:50Z</time>
      </trkpt>
      <trkpt lat="43.24702" lon="0.08352">
        <ele>300</ele>
        <time>2020-05-16T14:53:59Z</time>
      </trkpt>
      <trkpt lat="43.24681" lon="0.08351">
        <ele>299</ele>
        <time>2020-05-16T14:54:24Z</time>
      </trkpt>
      <trkpt lat="43.24669" lon="0.08346">
        <ele>299</ele>
        <time>2020-05-16T14:54:36Z</time>
      </trkpt>
      <trkpt lat="43.24658" lon="0.08344">
        <ele>299</ele>
        <time>2020-05-16T14:54:53Z</time>
      </trkpt>
      <trkpt lat="43.24649" lon="0.08344">
        <ele>300</ele>
        <time>2020-05-16T14:55:00Z</time>
      </trkpt>
      <trkpt lat="43.24626" lon="0.08337">
        <ele>300</ele>
        <time>2020-05-16T14:55:17Z</time>
      </trkpt>
      <trkpt lat="43.24619" lon="0.08337">
        <ele>300</ele>
        <time>2020-05-16T14:55:24Z</time>
      </trkpt>
      <trkpt lat="43.24604" lon="0.08327">
        <ele>300</ele>
        <time>2020-05-16T14:55:34Z</time>
      </trkpt>
      <trkpt lat="43.24598" lon="0.08325">
        <ele>300</ele>
        <time>2020-05-16T14:55:38Z</time>
      </trkpt>
      <trkpt lat="43.24585" lon="0.08324">
        <ele>300</ele>
        <time>2020-05-16T14:55:58Z</time>
      </trkpt>
      <trkpt lat="43.24558" lon="0.08306">
        <ele>300</ele>
        <time>2020-05-16T14:56:26Z</time>
      </trkpt>
      <trkpt lat="43.24552" lon="0.08297">
        <ele>300</ele>
        <time>2020-05-16T14:56:31Z</time>
      </trkpt>
      <trkpt lat="43.24548" lon="0.08288">
        <ele>300</ele>
        <time>2020-05-16T14:56:37Z</time>
      </trkpt>
      <trkpt lat="43.24541" lon="0.08282">
        <ele>300</ele>
        <time>2020-05-16T14:56:43Z</time>
      </trkpt>
      <trkpt lat="43.24533" lon="0.08283">
        <ele>300</ele>
        <time>2020-05-16T14:56:49Z</time>
      </trkpt>
      <trkpt lat="43.2449" lon="0.0826">
        <ele>300</ele>
        <time>2020-05-16T14:57:19Z</time>
      </trkpt>
      <trkpt lat="43.24452" lon="0.08258">
        <ele>300</ele>
        <time>2020-05-16T14:57:50Z</time>
      </trkpt>
      <trkpt lat="43.24435" lon="0.08268">
        <ele>300</ele>
        <time>2020-05-16T14:58:08Z</time>
      </trkpt>
      <trkpt lat="43.24419" lon="0.08269">
        <ele>300</ele>
        <time>2020-05-16T14:58:25Z</time>
      </trkpt>
      <trkpt lat="43.2441" lon="0.08272">
        <ele>300</ele>
        <time>2020-05-16T14:58:33Z</time>
      </trkpt>
      <trkpt lat="43.2439" lon="0.08276">
        <ele>300</ele>
        <time>2020-05-16T14:58:53Z</time>
      </trkpt>
      <trkpt lat="43.24358" lon="0.08283">
        <ele>300</ele>
        <time>2020-05-16T14:59:14Z</time>
      </trkpt>
      <trkpt lat="43.2435" lon="0.08282">
        <ele>301</ele>
        <time>2020-05-16T14:59:29Z</time>
      </trkpt>
      <trkpt lat="43.24336" lon="0.08273">
        <ele>301</ele>
        <time>2020-05-16T14:59:44Z</time>
      </trkpt>
      <trkpt lat="43.24329" lon="0.08271">
        <ele>301</ele>
        <time>2020-05-16T14:59:49Z</time>
      </trkpt>
      <trkpt lat="43.24324" lon="0.08267">
        <ele>301</ele>
        <time>2020-05-16T14:59:52Z</time>
      </trkpt>
      <trkpt lat="43.24313" lon="0.08264">
        <ele>301</ele>
        <time>2020-05-16T15:00:02Z</time>
      </trkpt>
      <trkpt lat="43.2431" lon="0.08262">
        <ele>302</ele>
        <time>2020-05-16T15:00:06Z</time>
      </trkpt>
      <trkpt lat="43.24302" lon="0.08265">
        <ele>302</ele>
        <time>2020-05-16T15:00:18Z</time>
      </trkpt>
      <trkpt lat="43.24275" lon="0.08261">
        <ele>303</ele>
        <time>2020-05-16T15:00:47Z</time>
      </trkpt>
      <trkpt lat="43.24265" lon="0.08252">
        <ele>303</ele>
        <time>2020-05-16T15:01:02Z</time>
      </trkpt>
      <trkpt lat="43.24233" lon="0.08256">
        <ele>303</ele>
        <time>2020-05-16T15:01:26Z</time>
      </trkpt>
      <trkpt lat="43.24228" lon="0.0826">
        <ele>303</ele>
        <time>2020-05-16T15:01:31Z</time>
      </trkpt>
      <trkpt lat="43.2422" lon="0.08258">
        <ele>303</ele>
        <time>2020-05-16T15:01:59Z</time>
      </trkpt>
      <trkpt lat="43.24215" lon="0.0826">
        <ele>303</ele>
        <time>2020-05-16T15:02:05Z</time>
      </trkpt>
      <trkpt lat="43.24203" lon="0.08258">
        <ele>303</ele>
        <time>2020-05-16T15:02:13Z</time>
      </trkpt>
      <trkpt lat="43.24196" lon="0.08256">
        <ele>303</ele>
        <time>2020-05-16T15:02:19Z</time>
      </trkpt>
      <trkpt lat="43.24158" lon="0.08256">
        <ele>303</ele>
        <time>2020-05-16T15:02:49Z</time>
      </trkpt>
      <trkpt lat="43.2415" lon="0.08256">
        <ele>303</ele>
        <time>2020-05-16T15:02:56Z</time>
      </trkpt>
      <trkpt lat="43.24131" lon="0.08272">
        <ele>303</ele>
        <time>2020-05-16T15:03:17Z</time>
      </trkpt>
      <trkpt lat="43.24115" lon="0.08271">
        <ele>304</ele>
        <time>2020-05-16T15:03:31Z</time>
      </trkpt>
      <trkpt lat="43.24107" lon="0.08271">
        <ele>303</ele>
        <time>2020-05-16T15:03:37Z</time>
      </trkpt>
      <trkpt lat="43.24098" lon="0.08275">
        <ele>303</ele>
        <time>2020-05-16T15:03:42Z</time>
      </trkpt>
      <trkpt lat="43.24076" lon="0.0829">
        <ele>304</ele>
        <time>2020-05-16T15:03:59Z</time>
      </trkpt>
      <trkpt lat="43.24045" lon="0.08302">
        <ele>304</ele>
        <time>2020-05-16T15:04:22Z</time>
      </trkpt>
      <trkpt lat="43.24014" lon="0.08326">
        <ele>305</ele>
        <time>2020-05-16T15:04:53Z</time>
      </trkpt>
      <trkpt lat="43.23991" lon="0.08333">
        <ele>305</ele>
        <time>2020-05-16T15:05:16Z</time>
      </trkpt>
      <trkpt lat="43.23968" lon="0.08329">
        <ele>303</ele>
        <time>2020-05-16T15:05:48Z</time>
      </trkpt>
      <trkpt lat="43.23957" lon="0.08322">
        <ele>303</ele>
        <time>2020-05-16T15:05:55Z</time>
      </trkpt>
      <trkpt lat="43.23936" lon="0.08336">
        <ele>304</ele>
        <time>2020-05-16T15:06:14Z</time>
      </trkpt>
      <trkpt lat="43.23887" lon="0.08358">
        <ele>304</ele>
        <time>2020-05-16T15:06:48Z</time>
      </trkpt>
      <trkpt lat="43.2388" lon="0.08363">
        <ele>304</ele>
        <time>2020-05-16T15:06:57Z</time>
      </trkpt>
      <trkpt lat="43.23874" lon="0.0837">
        <ele>304</ele>
        <time>2020-05-16T15:07:05Z</time>
      </trkpt>
      <trkpt lat="43.23853" lon="0.08378">
        <ele>304</ele>
        <time>2020-05-16T15:07:22Z</time>
      </trkpt>
      <trkpt lat="43.23846" lon="0.08379">
        <ele>304</ele>
        <time>2020-05-16T15:07:27Z</time>
      </trkpt>
      <trkpt lat="43.23837" lon="0.08383">
        <ele>305</ele>
        <time>2020-05-16T15:07:35Z</time>
      </trkpt>
      <trkpt lat="43.2381" lon="0.08421">
        <ele>305</ele>
        <time>2020-05-16T15:08:09Z</time>
      </trkpt>
      <trkpt lat="43.23792" lon="0.0843">
        <ele>305</ele>
        <time>2020-05-16T15:08:21Z</time>
      </trkpt>
      <trkpt lat="43.23785" lon="0.08442">
        <ele>305</ele>
        <time>2020-05-16T15:08:36Z</time>
      </trkpt>
      <trkpt lat="43.23778" lon="0.08445">
        <ele>306</ele>
        <time>2020-05-16T15:08:44Z</time>
      </trkpt>
      <trkpt lat="43.23761" lon="0.08447">
        <ele>306</ele>
        <time>2020-05-16T15:08:55Z</time>
      </trkpt>
      <trkpt lat="43.23727" lon="0.08466">
        <ele>306</ele>
        <time>2020-05-16T15:09:31Z</time>
      </trkpt>
      <trkpt lat="43.23696" lon="0.08477">
        <ele>306</ele>
        <time>2020-05-16T15:09:44Z</time>
      </trkpt>
      <trkpt lat="43.23649" lon="0.08527">
        <ele>307</ele>
        <time>2020-05-16T15:10:21Z</time>
      </trkpt>
      <trkpt lat="43.23641" lon="0.08543">
        <ele>307</ele>
        <time>2020-05-16T15:10:35Z</time>
      </trkpt>
      <trkpt lat="43.2361" lon="0.08587">
        <ele>308</ele>
        <time>2020-05-16T15:11:10Z</time>
      </trkpt>
      <trkpt lat="43.23597" lon="0.08595">
        <ele>308</ele>
        <time>2020-05-16T15:11:22Z</time>
      </trkpt>
      <trkpt lat="43.23591" lon="0.08603">
        <ele>308</ele>
        <time>2020-05-16T15:12:33Z</time>
      </trkpt>
      <trkpt lat="43.23586" lon="0.0861">
        <ele>309</ele>
        <time>2020-05-16T15:14:22Z</time>
      </trkpt>
      <trkpt lat="43.23579" lon="0.08605">
        <ele>311</ele>
        <time>2020-05-16T15:14:48Z</time>
      </trkpt>
      <trkpt lat="43.23574" lon="0.08596">
        <ele>311</ele>
        <time>2020-05-16T15:15:00Z</time>
      </trkpt>
      <trkpt lat="43.23564" lon="0.08586">
        <ele>311</ele>
        <time>2020-05-16T15:15:10Z</time>
      </trkpt>
      <trkpt lat="43.23562" lon="0.08579">
        <ele>310</ele>
        <time>2020-05-16T15:15:15Z</time>
      </trkpt>
      <trkpt lat="43.23556" lon="0.08569">
        <ele>310</ele>
        <time>2020-05-16T15:15:22Z</time>
      </trkpt>
      <trkpt lat="43.23538" lon="0.08547">
        <ele>310</ele>
        <time>2020-05-16T15:15:40Z</time>
      </trkpt>
      <trkpt lat="43.2353" lon="0.08527">
        <ele>310</ele>
        <time>2020-05-16T15:15:52Z</time>
      </trkpt>
      <trkpt lat="43.23501" lon="0.0848">
        <ele>311</ele>
        <time>2020-05-16T15:16:28Z</time>
      </trkpt>
      <trkpt lat="43.23486" lon="0.08443">
        <ele>311</ele>
        <time>2020-05-16T15:16:58Z</time>
      </trkpt>
      <trkpt lat="43.23457" lon="0.08432">
        <ele>311</ele>
        <time>2020-05-16T15:17:15Z</time>
      </trkpt>
      <trkpt lat="43.23438" lon="0.08401">
        <ele>311</ele>
        <time>2020-05-16T15:17:44Z</time>
      </trkpt>
      <trkpt lat="43.23423" lon="0.08363">
        <ele>312</ele>
        <time>2020-05-16T15:18:07Z</time>
      </trkpt>
      <trkpt lat="43.23435" lon="0.08328">
        <ele>311</ele>
        <time>2020-05-16T15:18:44Z</time>
      </trkpt>
      <trkpt lat="43.23423" lon="0.08258">
        <ele>311</ele>
        <time>2020-05-16T15:19:16Z</time>
      </trkpt>
      <trkpt lat="43.23416" lon="0.0822">
        <ele>312</ele>
        <time>2020-05-16T15:19:41Z</time>
      </trkpt>
      <trkpt lat="43.234" lon="0.082">
        <ele>312</ele>
        <time>2020-05-16T15:20:09Z</time>
      </trkpt>
    </trkseg>
  </trk>
</gpx>